Time,TemperatureF,DewpointF,PressureIn,WindDirection,WindDirectionDegrees,WindSpeedMPH,WindSpeedGustMPH,Humidity,HourlyPrecipIn,Conditions,Clouds,dailyrainin,SoftwareType,DateUTC
2013-02-08 00:01:00,51.6,46.3,29.51,WSW,248,2.0,2.0,82,0.00,,,0.00,VWS V14.00,2013-02-07 22:01:00,
2013-02-08 00:02:00,51.6,46.3,29.51,North,0,1.3,2.0,82,0.00,,,0.00,VWS V14.00,2013-02-07 22:02:00,
2013-02-08 00:03:00,51.6,46.3,29.51,North,0,1.3,2.0,82,0.00,,,0.00,VWS V14.00,2013-02-07 22:03:00,
2013-02-08 00:06:00,51.6,46.3,29.50,South,180,0.8,0.8,82,0.00,,,0.00,VWS V14.00,2013-02-07 22:06:00,
2013-02-08 00:08:00,51.6,46.3,29.50,SSW,202,5.5,5.5,82,0.00,,,0.00,VWS V14.00,2013-02-07 22:08:00,
2013-02-08 00:11:00,51.6,46.3,29.50,SSW,202,2.2,10.5,82,0.00,,,0.00,VWS V14.00,2013-02-07 22:11:00,
2013-02-08 00:13:00,51.6,46.3,29.50,SSW,202,2.2,10.5,82,0.00,,,0.00,VWS V14.00,2013-02-07 22:13:00,
2013-02-08 00:16:00,51.6,46.3,29.50,SSW,202,0.0,0.0,82,0.00,,,0.00,VWS V14.00,2013-02-07 22:16:00,
2013-02-08 00:18:00,51.6,46.3,29.50,SW,225,3.8,3.8,82,0.00,,,0.00,VWS V14.00,2013-02-07 22:18:00,
2013-02-08 00:21:00,51.6,46.0,29.51,SSW,202,1.5,1.5,81,0.00,,,0.00,VWS V14.00,2013-02-07 22:21:00,
2013-02-08 00:23:00,51.6,46.0,29.51,WSW,248,0.0,1.5,81,0.00,,,0.00,VWS V14.00,2013-02-07 22:23:00,
2013-02-08 00:26:00,51.6,46.0,29.50,SSW,202,2.2,4.0,81,0.00,,,0.00,VWS V14.00,2013-02-07 22:26:00,
2013-02-08 00:28:00,51.6,46.0,29.50,SSW,202,2.2,4.0,81,0.00,,,0.00,VWS V14.00,2013-02-07 22:28:00,
2013-02-08 00:29:00,51.6,46.0,29.50,South,180,1.1,4.0,81,0.00,,,0.00,VWS V14.00,2013-02-07 22:29:00,
2013-02-08 00:31:00,51.6,46.0,29.50,SSW,202,1.3,1.3,81,0.00,,,0.00,VWS V14.00,2013-02-07 22:31:00,
2013-02-08 00:33:00,51.6,46.0,29.50,SW,225,2.2,2.2,81,0.00,,,0.00,VWS V14.00,2013-02-07 22:33:00,
2013-02-08 00:34:00,51.6,46.0,29.50,SW,225,2.2,2.2,81,0.00,,,0.00,VWS V14.00,2013-02-07 22:34:00,
2013-02-08 00:36:00,51.6,46.0,29.50,SSW,202,0.8,0.8,81,0.00,,,0.00,VWS V14.00,2013-02-07 22:36:00,
2013-02-08 00:38:00,51.6,46.0,29.50,South,180,4.0,4.0,81,0.00,,,0.00,VWS V14.00,2013-02-07 22:38:00,
2013-02-08 00:39:00,51.6,46.0,29.50,South,180,4.0,4.0,81,0.00,,,0.00,VWS V14.00,2013-02-07 22:39:00,
2013-02-08 00:41:00,51.6,46.0,29.51,West,270,2.6,2.6,81,0.00,,,0.00,VWS V14.00,2013-02-07 22:41:00,
2013-02-08 00:43:00,51.6,45.6,29.51,SW,225,1.1,2.6,80,0.00,,,0.00,VWS V14.00,2013-02-07 22:43:00,
2013-02-08 00:44:00,51.6,45.6,29.51,SW,225,1.1,2.6,80,0.00,,,0.00,VWS V14.00,2013-02-07 22:44:00,
2013-02-08 00:46:00,51.6,45.6,29.51,WSW,248,2.2,2.2,80,0.00,,,0.00,VWS V14.00,2013-02-07 22:46:00,
2013-02-08 00:48:00,51.6,45.6,29.51,SW,225,1.1,2.2,80,0.00,,,0.00,VWS V14.00,2013-02-07 22:48:00,
2013-02-08 00:49:00,51.6,45.6,29.51,SW,225,1.1,2.2,80,0.00,,,0.00,VWS V14.00,2013-02-07 22:49:00,
2013-02-08 00:51:00,51.6,45.6,29.50,SSW,202,0.0,0.0,80,0.00,,,0.00,VWS V14.00,2013-02-07 22:51:00,
2013-02-08 00:53:00,51.6,45.6,29.51,SSW,202,0.0,0.0,80,0.00,,,0.00,VWS V14.00,2013-02-07 22:53:00,
2013-02-08 00:54:00,51.6,45.6,29.51,SSW,202,0.0,0.0,80,0.00,,,0.00,VWS V14.00,2013-02-07 22:54:00,
2013-02-08 00:56:00,51.6,45.6,29.50,WSW,248,1.7,2.0,80,0.00,,,0.00,VWS V14.00,2013-02-07 22:56:00,
2013-02-08 00:58:00,51.6,45.6,29.50,SW,225,2.4,2.4,80,0.00,,,0.00,VWS V14.00,2013-02-07 22:58:00,
2013-02-08 00:59:00,51.6,45.6,29.50,SW,225,2.4,2.4,80,0.00,,,0.00,VWS V14.00,2013-02-07 22:59:00,
2013-02-08 01:01:00,51.6,45.6,29.50,SW,225,0.0,0.0,80,0.00,,,0.00,VWS V14.00,2013-02-07 23:01:00,
2013-02-08 01:03:00,51.6,45.6,29.50,SW,225,1.5,1.5,80,0.00,,,0.00,VWS V14.00,2013-02-07 23:03:00,
2013-02-08 01:04:00,51.6,45.6,29.50,WSW,248,1.3,1.5,80,0.00,,,0.00,VWS V14.00,2013-02-07 23:04:00,
2013-02-08 01:06:00,51.6,45.6,29.50,WSW,248,1.3,1.3,80,0.00,,,0.00,VWS V14.00,2013-02-07 23:06:00,
2013-02-08 01:08:00,51.6,45.6,29.51,SW,225,0.0,1.3,80,0.00,,,0.00,VWS V14.00,2013-02-07 23:08:00,
2013-02-08 01:09:00,51.6,45.3,29.50,WSW,248,0.8,1.3,79,0.00,,,0.00,VWS V14.00,2013-02-07 23:09:00,
2013-02-08 01:11:00,51.6,45.3,29.50,West,270,0.0,0.8,79,0.00,,,0.00,VWS V14.00,2013-02-07 23:11:00,
2013-02-08 01:13:00,51.4,45.1,29.50,SW,225,0.0,0.8,79,0.00,,,0.00,VWS V14.00,2013-02-07 23:13:00,
2013-02-08 01:14:00,51.4,45.1,29.50,SW,225,0.0,0.8,79,0.00,,,0.00,VWS V14.00,2013-02-07 23:14:00,
2013-02-08 01:16:00,51.4,45.1,29.50,ESE,112,0.0,0.0,79,0.00,,,0.00,VWS V14.00,2013-02-07 23:16:00,
2013-02-08 01:18:00,51.4,45.1,29.50,SSE,158,0.0,0.0,79,0.00,,,0.00,VWS V14.00,2013-02-07 23:18:00,
2013-02-08 01:20:00,51.4,45.1,29.50,SSW,202,2.2,2.2,79,0.00,,,0.00,VWS V14.00,2013-02-07 23:20:00,
2013-02-08 01:21:00,51.4,45.1,29.50,SSW,202,2.2,2.2,79,0.00,,,0.00,VWS V14.00,2013-02-07 23:21:00,
2013-02-08 01:23:00,51.4,45.1,29.51,South,180,0.0,2.2,79,0.00,,,0.00,VWS V14.00,2013-02-07 23:23:00,
2013-02-08 01:25:00,51.4,45.1,29.50,WSW,248,0.0,2.2,79,0.00,,,0.00,VWS V14.00,2013-02-07 23:25:00,
2013-02-08 01:27:00,51.4,45.1,29.50,WSW,248,0.0,0.0,79,0.00,,,0.00,VWS V14.00,2013-02-07 23:27:00,
2013-02-08 01:28:00,51.4,45.1,29.50,WSW,248,0.0,0.0,79,0.00,,,0.00,VWS V14.00,2013-02-07 23:28:00,
2013-02-08 01:30:00,51.4,45.1,29.50,WSW,248,0.0,0.0,79,0.00,,,0.00,VWS V14.00,2013-02-07 23:30:00,
2013-02-08 01:32:00,51.2,44.9,29.50,SW,225,0.0,0.0,79,0.00,,,0.00,VWS V14.00,2013-02-07 23:32:00,
2013-02-08 01:33:00,51.4,45.1,29.50,SW,225,0.0,0.0,79,0.00,,,0.00,VWS V14.00,2013-02-07 23:33:00,
2013-02-08 01:35:00,51.2,44.9,29.50,SSW,202,1.3,1.3,79,0.00,,,0.00,VWS V14.00,2013-02-07 23:35:00,
2013-02-08 01:37:00,51.2,44.9,29.50,WSW,248,2.2,2.2,79,0.00,,,0.00,VWS V14.00,2013-02-07 23:37:00,
2013-02-08 01:38:00,51.2,44.9,29.50,WSW,248,2.2,2.2,79,0.00,,,0.00,VWS V14.00,2013-02-07 23:38:00,
2013-02-08 01:40:00,51.2,44.9,29.50,WSW,248,1.5,2.2,79,0.00,,,0.00,VWS V14.00,2013-02-07 23:40:00,
2013-02-08 01:42:00,51.2,44.9,29.50,South,180,0.0,1.5,79,0.00,,,0.00,VWS V14.00,2013-02-07 23:42:00,
2013-02-08 01:43:00,51.0,44.7,29.50,SSW,202,2.6,2.6,79,0.00,,,0.00,VWS V14.00,2013-02-07 23:43:00,
2013-02-08 01:45:00,51.0,44.7,29.50,WSW,248,4.2,4.2,79,0.00,,,0.00,VWS V14.00,2013-02-07 23:45:00,
2013-02-08 01:47:00,51.0,44.7,29.50,WSW,248,4.2,4.2,79,0.00,,,0.00,VWS V14.00,2013-02-07 23:47:00,
2013-02-08 01:48:00,51.0,44.7,29.50,WSW,248,0.0,4.2,79,0.00,,,0.00,VWS V14.00,2013-02-07 23:48:00,
2013-02-08 01:49:00,51.0,44.7,29.50,WSW,248,0.0,4.2,79,0.00,,,0.00,VWS V14.00,2013-02-07 23:49:00,
2013-02-08 01:50:00,51.0,44.7,29.50,SSW,202,3.8,3.8,79,0.00,,,0.00,VWS V14.00,2013-02-07 23:50:00,
2013-02-08 01:52:00,51.0,44.7,29.50,SSW,202,3.8,3.8,79,0.00,,,0.00,VWS V14.00,2013-02-07 23:52:00,
2013-02-08 01:54:00,51.0,44.7,29.50,SSW,202,3.1,3.8,79,0.00,,,0.00,VWS V14.00,2013-02-07 23:54:00,
2013-02-08 01:55:00,51.0,44.7,29.50,South,180,0.0,0.0,79,0.00,,,0.00,VWS V14.00,2013-02-07 23:55:00,
2013-02-08 01:57:00,51.0,44.7,29.50,South,180,3.1,3.1,79,0.00,,,0.00,VWS V14.00,2013-02-07 23:57:00,
2013-02-08 01:59:00,51.0,44.7,29.50,SE,135,4.2,4.2,79,0.00,,,0.00,VWS V14.00,2013-02-07 23:59:00,
2013-02-08 02:00:00,51.0,44.7,29.50,SSW,202,5.1,5.1,79,0.00,,,0.00,VWS V14.00,2013-02-08 00:00:00,
2013-02-08 02:02:00,51.0,44.7,29.50,SSW,202,5.1,5.1,79,0.00,,,0.00,VWS V14.00,2013-02-08 00:02:00,
2013-02-08 02:04:00,51.0,44.7,29.50,SSW,202,5.1,5.1,79,0.00,,,0.00,VWS V14.00,2013-02-08 00:04:00,
2013-02-08 02:05:00,51.0,44.7,29.50,SW,225,3.8,3.8,79,0.00,,,0.00,VWS V14.00,2013-02-08 00:05:00,
2013-02-08 02:07:00,51.0,44.7,29.50,WSW,248,3.3,3.8,79,0.00,,,0.00,VWS V14.00,2013-02-08 00:07:00,
2013-02-08 02:09:00,51.0,44.7,29.50,WSW,248,3.3,3.8,79,0.00,,,0.00,VWS V14.00,2013-02-08 00:09:00,
2013-02-08 02:10:00,51.0,44.7,29.50,SW,225,2.4,2.4,79,0.00,,,0.00,VWS V14.00,2013-02-08 00:10:00,
2013-02-08 02:12:00,51.2,44.9,29.50,West,270,8.2,8.2,79,0.00,,,0.00,VWS V14.00,2013-02-08 00:12:00,
2013-02-08 02:14:00,51.2,44.9,29.50,SW,225,8.9,8.9,79,0.00,,,0.00,VWS V14.00,2013-02-08 00:14:00,
2013-02-08 02:15:00,51.2,44.9,29.51,SSW,202,8.0,8.0,79,0.00,,,0.00,VWS V14.00,2013-02-08 00:15:00,
2013-02-08 02:17:00,51.2,44.9,29.51,SW,225,3.8,8.0,79,0.00,,,0.00,VWS V14.00,2013-02-08 00:17:00,
2013-02-08 02:19:00,51.2,44.9,29.51,SW,225,3.8,8.0,79,0.00,,,0.00,VWS V14.00,2013-02-08 00:19:00,
2013-02-08 02:20:00,51.4,45.1,29.51,SSW,202,6.0,6.0,79,0.00,,,0.00,VWS V14.00,2013-02-08 00:20:00,
2013-02-08 02:22:00,51.4,45.1,29.51,SW,225,4.4,6.0,79,0.00,,,0.00,VWS V14.00,2013-02-08 00:22:00,
2013-02-08 02:24:00,51.4,45.1,29.50,SW,225,4.4,6.0,79,0.00,,,0.00,VWS V14.00,2013-02-08 00:24:00,
2013-02-08 02:25:00,51.4,45.1,29.50,SSW,202,0.0,0.0,79,0.00,,,0.00,VWS V14.00,2013-02-08 00:25:00,
2013-02-08 02:27:00,51.4,45.1,29.50,SW,225,4.9,4.9,79,0.00,,,0.00,VWS V14.00,2013-02-08 00:27:00,
2013-02-08 02:29:00,51.4,45.1,29.50,WSW,248,0.8,4.9,79,0.00,,,0.00,VWS V14.00,2013-02-08 00:29:00,
2013-02-08 02:30:00,51.4,45.1,29.50,SW,225,9.3,9.3,79,0.00,,,0.00,VWS V14.00,2013-02-08 00:30:00,
2013-02-08 02:32:00,51.4,45.1,29.50,SW,225,5.5,9.3,79,0.00,,,0.00,VWS V14.00,2013-02-08 00:32:00,
2013-02-08 02:34:00,51.4,45.1,29.50,SW,225,5.5,9.3,79,0.00,,,0.00,VWS V14.00,2013-02-08 00:34:00,
2013-02-08 02:36:00,51.4,45.1,29.50,WSW,248,0.0,0.0,79,0.00,,,0.00,VWS V14.00,2013-02-08 00:36:00,
2013-02-08 02:38:00,51.4,45.1,29.50,SSW,202,2.2,2.2,79,0.00,,,0.00,VWS V14.00,2013-02-08 00:38:00,
2013-02-08 02:39:00,51.4,45.1,29.50,SSW,202,2.2,2.2,79,0.00,,,0.00,VWS V14.00,2013-02-08 00:39:00,
2013-02-08 02:41:00,51.4,45.1,29.50,SW,225,5.5,5.5,79,0.00,,,0.00,VWS V14.00,2013-02-08 00:41:00,
2013-02-08 02:43:00,51.4,45.1,29.50,WSW,248,8.0,8.0,79,0.00,,,0.00,VWS V14.00,2013-02-08 00:43:00,
2013-02-08 02:44:00,51.4,45.1,29.50,SSW,202,7.8,8.0,79,0.00,,,0.00,VWS V14.00,2013-02-08 00:44:00,
2013-02-08 02:46:00,51.2,44.9,29.50,SW,225,6.0,6.0,79,0.00,,,0.00,VWS V14.00,2013-02-08 00:46:00,
2013-02-08 02:48:00,51.2,44.9,29.50,WSW,248,10.9,10.9,79,0.00,,,0.00,VWS V14.00,2013-02-08 00:48:00,
2013-02-08 02:49:00,51.2,44.9,29.51,WSW,248,10.9,10.9,79,0.00,,,0.00,VWS V14.00,2013-02-08 00:49:00,
2013-02-08 02:51:00,51.0,44.7,29.51,West,270,2.2,2.2,79,0.00,,,0.00,VWS V14.00,2013-02-08 00:51:00,
2013-02-08 02:53:00,51.0,44.4,29.50,SSW,202,7.3,7.3,78,0.00,,,0.00,VWS V14.00,2013-02-08 00:53:00,
2013-02-08 02:54:00,51.0,44.4,29.51,SSW,202,0.8,7.3,78,0.00,,,0.00,VWS V14.00,2013-02-08 00:54:00,
2013-02-08 02:55:00,51.0,44.4,29.51,SSW,202,0.8,7.3,78,0.00,,,0.00,VWS V14.00,2013-02-08 00:55:00,
2013-02-08 02:56:00,51.0,44.4,29.51,WSW,248,0.8,0.8,78,0.00,,,0.00,VWS V14.00,2013-02-08 00:56:00,
2013-02-08 02:58:00,51.0,44.4,29.50,WSW,248,0.8,0.8,78,0.00,,,0.00,VWS V14.00,2013-02-08 00:58:00,
2013-02-08 03:00:00,50.9,44.3,29.51,SW,225,4.0,4.0,78,0.00,,,0.00,VWS V14.00,2013-02-08 01:00:00,
2013-02-08 03:01:00,50.9,44.3,29.50,SSW,202,2.2,2.2,78,0.00,,,0.00,VWS V14.00,2013-02-08 01:01:00,
2013-02-08 03:03:00,50.9,44.3,29.50,WSW,248,6.2,6.2,78,0.00,,,0.00,VWS V14.00,2013-02-08 01:03:00,
2013-02-08 03:05:00,50.7,43.8,29.50,WSW,248,2.9,6.2,77,0.00,,,0.00,VWS V14.00,2013-02-08 01:05:00,
2013-02-08 03:06:00,50.7,43.8,29.50,WSW,248,2.9,2.9,77,0.00,,,0.00,VWS V14.00,2013-02-08 01:06:00,
2013-02-08 03:08:00,50.7,43.8,29.50,SSW,202,3.1,3.1,77,0.00,,,0.00,VWS V14.00,2013-02-08 01:08:00,
2013-02-08 03:10:00,50.7,43.8,29.50,WSW,248,0.8,3.1,77,0.00,,,0.00,VWS V14.00,2013-02-08 01:10:00,
2013-02-08 03:11:00,50.7,43.8,29.50,WSW,248,0.8,0.8,77,0.00,,,0.00,VWS V14.00,2013-02-08 01:11:00,
2013-02-08 03:13:00,50.7,43.8,29.50,South,180,3.3,3.3,77,0.00,,,0.00,VWS V14.00,2013-02-08 01:13:00,
2013-02-08 03:15:00,50.7,43.8,29.50,South,180,3.3,3.3,77,0.00,,,0.00,VWS V14.00,2013-02-08 01:15:00,
2013-02-08 03:16:00,50.5,43.6,29.50,SSW,202,5.3,5.3,77,0.00,,,0.00,VWS V14.00,2013-02-08 01:16:00,
2013-02-08 03:18:00,50.5,43.6,29.50,SW,225,2.4,5.3,77,0.00,,,0.00,VWS V14.00,2013-02-08 01:18:00,
2013-02-08 03:20:00,50.5,43.6,29.51,West,270,9.1,9.1,77,0.00,,,0.00,VWS V14.00,2013-02-08 01:20:00,
2013-02-08 03:21:00,50.5,43.6,29.50,West,270,9.1,9.1,77,0.00,,,0.00,VWS V14.00,2013-02-08 01:21:00,
2013-02-08 03:23:00,50.5,43.2,29.50,WSW,248,6.4,9.1,76,0.00,,,0.00,VWS V14.00,2013-02-08 01:23:00,
2013-02-08 03:25:00,50.5,43.2,29.50,WSW,248,6.4,9.1,76,0.00,,,0.00,VWS V14.00,2013-02-08 01:25:00,
2013-02-08 03:26:00,50.5,43.2,29.50,WSW,248,6.4,6.4,76,0.00,,,0.00,VWS V14.00,2013-02-08 01:26:00,
2013-02-08 03:28:00,50.3,43.0,29.50,West,270,4.9,6.4,76,0.00,,,0.00,VWS V14.00,2013-02-08 01:28:00,
2013-02-08 03:30:00,50.3,43.0,29.50,West,270,4.9,6.4,76,0.00,,,0.00,VWS V14.00,2013-02-08 01:30:00,
2013-02-08 03:31:00,50.3,42.7,29.50,SW,225,4.2,4.2,75,0.00,,,0.00,VWS V14.00,2013-02-08 01:31:00,
2013-02-08 03:33:00,50.3,42.7,29.50,SSW,202,4.4,4.4,75,0.00,,,0.00,VWS V14.00,2013-02-08 01:33:00,
2013-02-08 03:35:00,50.3,42.7,29.50,West,270,1.3,4.4,75,0.00,,,0.00,VWS V14.00,2013-02-08 01:35:00,
2013-02-08 03:36:00,50.3,42.7,29.50,West,270,1.3,1.3,75,0.00,,,0.00,VWS V14.00,2013-02-08 01:36:00,
2013-02-08 03:38:00,50.1,42.5,29.50,SSW,202,0.6,1.3,75,0.00,,,0.00,VWS V14.00,2013-02-08 01:38:00,
2013-02-08 03:40:00,50.1,42.5,29.50,WSW,248,6.7,6.7,75,0.00,,,0.00,VWS V14.00,2013-02-08 01:40:00,
2013-02-08 03:41:00,50.1,42.5,29.50,West,270,2.4,6.7,75,0.00,,,0.00,VWS V14.00,2013-02-08 01:41:00,
2013-02-08 03:43:00,50.1,42.2,29.50,SW,225,5.8,6.7,74,0.00,,,0.00,VWS V14.00,2013-02-08 01:43:00,
2013-02-08 03:45:00,50.1,42.2,29.50,SW,225,5.8,6.7,74,0.00,,,0.00,VWS V14.00,2013-02-08 01:45:00,
2013-02-08 03:46:00,50.1,42.2,29.49,SSW,202,2.9,2.9,74,0.00,,,0.00,VWS V14.00,2013-02-08 01:46:00,
2013-02-08 03:48:00,50.1,42.2,29.50,SSW,202,1.1,2.9,74,0.00,,,0.00,VWS V14.00,2013-02-08 01:48:00,
2013-02-08 03:50:00,50.0,42.0,29.50,South,180,5.8,5.8,74,0.00,,,0.00,VWS V14.00,2013-02-08 01:50:00,
2013-02-08 03:51:00,50.0,42.0,29.50,South,180,5.8,5.8,74,0.00,,,0.00,VWS V14.00,2013-02-08 01:51:00,
2013-02-08 03:54:00,49.8,41.9,29.50,WSW,248,8.9,8.9,74,0.00,,,0.00,VWS V14.00,2013-02-08 01:54:00,
2013-02-08 03:55:00,49.8,41.9,29.50,SW,225,6.7,8.9,74,0.00,,,0.00,VWS V14.00,2013-02-08 01:55:00,
2013-02-08 03:56:00,49.8,41.9,29.50,WSW,248,5.8,6.7,74,0.00,,,0.00,VWS V14.00,2013-02-08 01:56:00,
2013-02-08 03:59:00,49.8,41.9,29.50,SW,225,5.8,6.7,74,0.00,,,0.00,VWS V14.00,2013-02-08 01:59:00,
2013-02-08 04:00:00,49.8,41.9,29.50,South,180,5.3,6.7,74,0.00,,,0.00,VWS V14.00,2013-02-08 02:00:00,
2013-02-08 04:01:00,49.8,41.9,29.50,South,180,5.3,5.3,74,0.00,,,0.00,VWS V14.00,2013-02-08 02:01:00,
2013-02-08 04:04:00,49.8,41.9,29.50,WSW,248,2.6,5.3,74,0.00,,,0.00,VWS V14.00,2013-02-08 02:04:00,
2013-02-08 04:05:00,49.8,41.9,29.50,WSW,248,2.4,5.3,74,0.00,,,0.00,VWS V14.00,2013-02-08 02:05:00,
2013-02-08 04:06:00,49.8,41.9,29.50,WSW,248,2.4,2.4,74,0.00,,,0.00,VWS V14.00,2013-02-08 02:06:00,
2013-02-08 04:09:00,49.8,41.9,29.50,SW,225,3.5,3.5,74,0.00,,,0.00,VWS V14.00,2013-02-08 02:09:00,
2013-02-08 04:10:00,49.8,41.5,29.50,SSW,202,2.2,3.5,73,0.00,,,0.00,VWS V14.00,2013-02-08 02:10:00,
2013-02-08 04:11:00,49.8,41.5,29.50,SSW,202,0.0,2.2,73,0.00,,,0.00,VWS V14.00,2013-02-08 02:11:00,
2013-02-08 04:14:00,49.6,41.3,29.50,WSW,248,2.0,2.2,73,0.00,,,0.00,VWS V14.00,2013-02-08 02:14:00,
2013-02-08 04:15:00,49.6,41.3,29.50,WSW,248,2.0,2.2,73,0.00,,,0.00,VWS V14.00,2013-02-08 02:15:00,
2013-02-08 04:16:00,49.6,41.3,29.50,SW,225,6.9,6.9,73,0.00,,,0.00,VWS V14.00,2013-02-08 02:16:00,
2013-02-08 04:19:00,49.6,41.3,29.50,West,270,2.9,6.9,73,0.00,,,0.00,VWS V14.00,2013-02-08 02:19:00,
2013-02-08 04:20:00,49.6,41.3,29.50,West,270,2.9,6.9,73,0.00,,,0.00,VWS V14.00,2013-02-08 02:20:00,
2013-02-08 04:21:00,49.6,41.3,29.50,South,180,0.0,10.5,73,0.00,,,0.00,VWS V14.00,2013-02-08 02:21:00,
2013-02-08 04:24:00,49.6,41.3,29.49,SW,225,3.8,10.5,73,0.00,,,0.00,VWS V14.00,2013-02-08 02:24:00,
2013-02-08 04:25:00,49.6,41.3,29.50,SW,225,3.8,3.8,73,0.00,,,0.00,VWS V14.00,2013-02-08 02:25:00,
2013-02-08 04:27:00,49.6,41.3,29.49,South,180,5.3,5.3,73,0.00,,,0.00,VWS V14.00,2013-02-08 02:27:00,
2013-02-08 04:29:00,49.6,41.3,29.50,WSW,248,7.6,7.6,73,0.00,,,0.00,VWS V14.00,2013-02-08 02:29:00,
2013-02-08 04:30:00,49.6,41.0,29.50,SW,225,11.4,11.4,72,0.00,,,0.00,VWS V14.00,2013-02-08 02:30:00,
2013-02-08 04:32:00,49.6,41.0,29.50,SW,225,11.4,11.4,72,0.00,,,0.00,VWS V14.00,2013-02-08 02:32:00,
2013-02-08 04:34:00,49.6,41.0,29.50,WNW,292,2.4,11.4,72,0.00,,,0.00,VWS V14.00,2013-02-08 02:34:00,
2013-02-08 04:35:00,49.6,41.0,29.50,WNW,292,2.4,2.4,72,0.00,,,0.00,VWS V14.00,2013-02-08 02:35:00,
2013-02-08 04:37:00,49.6,41.0,29.50,SW,225,4.2,4.2,72,0.00,,,0.00,VWS V14.00,2013-02-08 02:37:00,
2013-02-08 04:39:00,49.6,41.0,29.50,SW,225,6.9,6.9,72,0.00,,,0.00,VWS V14.00,2013-02-08 02:39:00,
2013-02-08 04:40:00,49.6,41.0,29.50,SW,225,6.9,6.9,72,0.00,,,0.00,VWS V14.00,2013-02-08 02:40:00,
2013-02-08 04:42:00,49.6,41.0,29.50,West,270,11.1,11.1,72,0.00,,,0.00,VWS V14.00,2013-02-08 02:42:00,
2013-02-08 04:44:00,49.6,41.0,29.50,North,0,0.8,11.1,72,0.00,,,0.00,VWS V14.00,2013-02-08 02:44:00,
2013-02-08 04:45:00,49.6,41.0,29.50,SSW,202,8.9,8.9,72,0.00,,,0.00,VWS V14.00,2013-02-08 02:45:00,
2013-02-08 04:47:00,49.6,41.0,29.50,SSW,202,8.9,8.9,72,0.00,,,0.00,VWS V14.00,2013-02-08 02:47:00,
2013-02-08 04:49:00,49.6,40.6,29.50,WSW,248,2.4,8.9,71,0.00,,,0.00,VWS V14.00,2013-02-08 02:49:00,
2013-02-08 04:50:00,49.6,40.6,29.50,WSW,248,2.4,2.4,71,0.00,,,0.00,VWS V14.00,2013-02-08 02:50:00,
2013-02-08 04:52:00,49.6,40.6,29.51,South,180,0.6,2.4,71,0.00,,,0.00,VWS V14.00,2013-02-08 02:52:00,
2013-02-08 04:55:00,49.6,40.6,29.51,SSW,202,6.0,6.0,71,0.00,,,0.00,VWS V14.00,2013-02-08 02:55:00,
2013-02-08 04:56:00,49.6,40.6,29.51,SSW,202,6.0,6.0,71,0.00,,,0.00,VWS V14.00,2013-02-08 02:56:00,
2013-02-08 04:57:00,49.6,40.6,29.51,WSW,248,4.4,6.0,71,0.00,,,0.00,VWS V14.00,2013-02-08 02:57:00,
2013-02-08 05:00:00,49.6,40.6,29.51,SSW,202,4.0,6.0,71,0.00,,,0.00,VWS V14.00,2013-02-08 03:00:00,
2013-02-08 05:01:00,49.6,40.6,29.52,SSW,202,1.7,1.7,71,0.00,,,0.00,VWS V14.00,2013-02-08 03:01:00,
2013-02-08 05:02:00,49.6,40.6,29.51,West,270,1.1,1.7,71,0.00,,,0.00,VWS V14.00,2013-02-08 03:02:00,
2013-02-08 05:05:00,49.6,40.6,29.52,SSW,202,3.1,3.1,71,0.00,,,0.00,VWS V14.00,2013-02-08 03:05:00,
2013-02-08 05:06:00,49.4,40.4,29.52,SSW,202,3.1,3.1,71,0.00,,,0.00,VWS V14.00,2013-02-08 03:06:00,
2013-02-08 05:07:00,49.2,40.2,29.52,West,270,2.2,3.1,71,0.00,,,0.00,VWS V14.00,2013-02-08 03:07:00,
2013-02-08 05:10:00,49.4,40.4,29.52,South,180,0.8,3.1,71,0.00,,,0.00,VWS V14.00,2013-02-08 03:10:00,
2013-02-08 05:11:00,49.2,40.2,29.52,NW,315,0.6,0.8,71,0.00,,,0.00,VWS V14.00,2013-02-08 03:11:00,
2013-02-08 05:12:00,49.2,40.2,29.52,NW,315,0.6,0.8,71,0.00,,,0.00,VWS V14.00,2013-02-08 03:12:00,
2013-02-08 05:15:00,49.4,40.4,29.52,WNW,292,0.0,0.8,71,0.00,,,0.00,VWS V14.00,2013-02-08 03:15:00,
2013-02-08 05:16:00,49.2,40.2,29.52,WSW,248,0.0,0.0,71,0.00,,,0.00,VWS V14.00,2013-02-08 03:16:00,
2013-02-08 05:17:00,49.2,40.2,29.52,NNW,338,0.0,0.0,71,0.00,,,0.00,VWS V14.00,2013-02-08 03:17:00,
2013-02-08 05:20:00,49.2,40.6,29.53,SW,225,0.0,0.0,72,0.00,,,0.00,VWS V14.00,2013-02-08 03:20:00,
2013-02-08 05:21:00,49.2,40.6,29.52,SW,225,0.0,0.0,72,0.00,,,0.00,VWS V14.00,2013-02-08 03:21:00,
2013-02-08 05:22:00,49.2,40.6,29.52,West,270,0.0,0.0,72,0.00,,,0.00,VWS V14.00,2013-02-08 03:22:00,
2013-02-08 05:25:00,49.2,40.6,29.52,SSE,158,0.0,0.0,72,0.00,,,0.00,VWS V14.00,2013-02-08 03:25:00,
2013-02-08 05:26:00,49.2,40.6,29.53,North,0,0.0,0.0,72,0.00,,,0.00,VWS V14.00,2013-02-08 03:26:00,
2013-02-08 05:27:00,49.2,40.6,29.52,North,0,0.0,0.0,72,0.00,,,0.00,VWS V14.00,2013-02-08 03:27:00,
2013-02-08 05:30:00,49.2,40.6,29.52,NNW,338,0.8,0.8,72,0.00,,,0.00,VWS V14.00,2013-02-08 03:30:00,
2013-02-08 05:31:00,49.2,40.6,29.52,North,0,0.0,0.0,72,0.00,,,0.00,VWS V14.00,2013-02-08 03:31:00,
2013-02-08 05:33:00,49.1,40.5,29.52,West,270,0.0,0.0,72,0.00,,,0.00,VWS V14.00,2013-02-08 03:33:00,
2013-02-08 05:35:00,49.1,40.5,29.52,WNW,292,0.0,0.0,72,0.00,,,0.00,VWS V14.00,2013-02-08 03:35:00,
2013-02-08 05:36:00,49.1,40.5,29.52,WNW,292,0.0,0.0,72,0.00,,,0.00,VWS V14.00,2013-02-08 03:36:00,
2013-02-08 05:38:00,49.1,40.5,29.52,NW,315,0.0,0.0,72,0.00,,,0.00,VWS V14.00,2013-02-08 03:38:00,
2013-02-08 05:40:00,49.1,40.5,29.52,WNW,292,0.0,0.0,72,0.00,,,0.00,VWS V14.00,2013-02-08 03:40:00,
2013-02-08 05:41:00,49.1,40.5,29.52,NNW,338,0.0,0.0,72,0.00,,,0.00,VWS V14.00,2013-02-08 03:41:00,
2013-02-08 05:43:00,49.1,40.5,29.52,NNW,338,0.0,0.0,72,0.00,,,0.00,VWS V14.00,2013-02-08 03:43:00,
2013-02-08 05:45:00,48.9,40.6,29.52,WNW,292,0.0,0.0,73,0.00,,,0.00,VWS V14.00,2013-02-08 03:45:00,
2013-02-08 05:46:00,48.9,40.6,29.52,WNW,292,0.0,0.0,73,0.00,,,0.00,VWS V14.00,2013-02-08 03:46:00,
2013-02-08 05:48:00,48.9,40.6,29.52,SSW,202,0.0,0.0,73,0.00,,,0.00,VWS V14.00,2013-02-08 03:48:00,
2013-02-08 05:50:00,48.9,40.6,29.52,West,270,0.0,0.0,73,0.00,,,0.00,VWS V14.00,2013-02-08 03:50:00,
2013-02-08 05:51:00,48.7,40.5,29.52,West,270,0.0,0.0,73,0.00,,,0.00,VWS V14.00,2013-02-08 03:51:00,
2013-02-08 05:53:00,48.7,40.5,29.52,WSW,248,0.0,0.0,73,0.00,,,0.00,VWS V14.00,2013-02-08 03:53:00,
2013-02-08 05:55:00,48.7,40.5,29.52,SW,225,0.0,0.0,73,0.00,,,0.00,VWS V14.00,2013-02-08 03:55:00,
2013-02-08 05:56:00,48.7,40.5,29.52,WNW,292,0.0,0.0,73,0.00,,,0.00,VWS V14.00,2013-02-08 03:56:00,
2013-02-08 05:58:00,48.7,40.5,29.52,WNW,292,0.0,0.0,73,0.00,,,0.00,VWS V14.00,2013-02-08 03:58:00,
2013-02-08 06:00:00,48.7,40.5,29.52,WSW,248,0.0,0.0,73,0.00,,,0.00,VWS V14.00,2013-02-08 04:00:00,
2013-02-08 06:01:00,48.7,40.5,29.52,WSW,248,0.0,0.0,73,0.00,,,0.00,VWS V14.00,2013-02-08 04:01:00,
2013-02-08 06:02:00,48.7,40.5,29.52,WSW,248,0.0,0.0,73,0.00,,,0.00,VWS V14.00,2013-02-08 04:02:00,
2013-02-08 06:03:00,48.7,40.5,29.52,NNW,338,0.0,0.0,73,0.00,,,0.00,VWS V14.00,2013-02-08 04:03:00,
2013-02-08 06:05:00,48.5,40.2,29.53,SSW,202,3.3,3.3,73,0.00,,,0.00,VWS V14.00,2013-02-08 04:05:00,
2013-02-08 06:07:00,48.5,40.2,29.52,South,180,0.0,3.3,73,0.00,,,0.00,VWS V14.00,2013-02-08 04:07:00,
2013-02-08 06:08:00,48.5,40.2,29.53,South,180,0.0,3.3,73,0.00,,,0.00,VWS V14.00,2013-02-08 04:08:00,
2013-02-08 06:10:00,48.3,40.1,29.53,South,180,0.0,0.0,73,0.00,,,0.00,VWS V14.00,2013-02-08 04:10:00,
2013-02-08 06:12:00,48.3,40.4,29.53,South,180,0.0,0.0,74,0.00,,,0.00,VWS V14.00,2013-02-08 04:12:00,
2013-02-08 06:13:00,48.3,40.4,29.53,South,180,0.0,0.0,74,0.00,,,0.00,VWS V14.00,2013-02-08 04:13:00,
2013-02-08 06:15:00,48.2,40.3,29.53,NNW,338,0.8,0.8,74,0.00,,,0.00,VWS V14.00,2013-02-08 04:15:00,
2013-02-08 06:17:00,48.2,40.3,29.53,NNW,338,0.8,0.8,74,0.00,,,0.00,VWS V14.00,2013-02-08 04:17:00,
2013-02-08 06:18:00,48.2,40.3,29.53,NNW,338,0.0,0.8,74,0.00,,,0.00,VWS V14.00,2013-02-08 04:18:00,
2013-02-08 06:20:00,48.2,40.3,29.53,NNE,22,0.0,0.0,74,0.00,,,0.00,VWS V14.00,2013-02-08 04:20:00,
2013-02-08 06:22:00,48.2,40.3,29.53,NNE,22,0.0,0.0,74,0.00,,,0.00,VWS V14.00,2013-02-08 04:22:00,
2013-02-08 06:23:00,48.2,40.3,29.53,NNE,22,0.0,0.0,74,0.00,,,0.00,VWS V14.00,2013-02-08 04:23:00,
2013-02-08 06:25:00,48.0,40.1,29.53,NE,45,0.8,0.8,74,0.00,,,0.00,VWS V14.00,2013-02-08 04:25:00,
2013-02-08 06:27:00,48.0,40.1,29.53,WSW,248,1.5,1.5,74,0.00,,,0.00,VWS V14.00,2013-02-08 04:27:00,
2013-02-08 06:28:00,48.0,40.1,29.53,WSW,248,1.5,1.5,74,0.00,,,0.00,VWS V14.00,2013-02-08 04:28:00,
2013-02-08 06:30:00,48.0,40.5,29.53,SSE,158,0.0,0.0,75,0.00,,,0.00,VWS V14.00,2013-02-08 04:30:00,
2013-02-08 06:32:00,48.0,40.5,29.53,SSE,158,0.0,0.0,75,0.00,,,0.00,VWS V14.00,2013-02-08 04:32:00,
2013-02-08 06:33:00,48.0,40.5,29.53,ENE,68,0.8,0.8,75,0.00,,,0.00,VWS V14.00,2013-02-08 04:33:00,
2013-02-08 06:35:00,48.0,40.5,29.53,SW,225,1.1,1.1,75,0.00,,,0.00,VWS V14.00,2013-02-08 04:35:00,
2013-02-08 06:37:00,47.8,40.3,29.53,West,270,1.5,1.5,75,0.00,,,0.00,VWS V14.00,2013-02-08 04:37:00,
2013-02-08 06:38:00,47.8,40.3,29.53,West,270,1.5,1.5,75,0.00,,,0.00,VWS V14.00,2013-02-08 04:38:00,
2013-02-08 06:40:00,47.8,40.3,29.53,SW,225,0.0,0.0,75,0.00,,,0.00,VWS V14.00,2013-02-08 04:40:00,
2013-02-08 06:42:00,47.8,40.3,29.53,SSE,158,2.9,2.9,75,0.00,,,0.00,VWS V14.00,2013-02-08 04:42:00,
2013-02-08 06:43:00,47.8,40.3,29.53,South,180,0.0,2.9,75,0.00,,,0.00,VWS V14.00,2013-02-08 04:43:00,
2013-02-08 06:45:00,47.6,19.2,29.53,SW,225,0.0,0.0,32,0.00,,,0.00,VWS V14.00,2013-02-08 04:45:00,
2013-02-08 06:47:00,47.6,40.1,29.53,SW,225,0.0,0.0,75,0.00,,,0.00,VWS V14.00,2013-02-08 04:47:00,
2013-02-08 06:48:00,47.6,40.1,29.52,West,270,0.0,0.0,75,0.00,,,0.00,VWS V14.00,2013-02-08 04:48:00,
2013-02-08 06:50:00,47.6,40.1,29.53,NNW,338,0.0,0.0,75,0.00,,,0.00,VWS V14.00,2013-02-08 04:50:00,
2013-02-08 06:52:00,47.6,40.1,29.53,SSW,202,0.0,0.0,75,0.00,,,0.00,VWS V14.00,2013-02-08 04:52:00,
2013-02-08 06:53:00,47.6,40.1,29.53,SSW,202,0.0,0.0,75,0.00,,,0.00,VWS V14.00,2013-02-08 04:53:00,
2013-02-08 06:55:00,47.4,40.2,29.53,WNW,292,0.0,0.0,76,0.00,,,0.00,VWS V14.00,2013-02-08 04:55:00,
2013-02-08 06:57:00,47.4,40.2,29.53,WSW,248,0.0,0.0,76,0.00,,,0.00,VWS V14.00,2013-02-08 04:57:00,
2013-02-08 06:58:00,47.4,40.2,29.53,NW,315,0.0,0.0,76,0.00,,,0.00,VWS V14.00,2013-02-08 04:58:00,
2013-02-08 07:00:00,47.4,40.2,29.53,NW,315,0.0,0.0,76,0.00,,,0.00,VWS V14.00,2013-02-08 05:00:00,
2013-02-08 07:05:00,47.4,40.2,29.54,West,270,0.0,0.0,76,0.00,,,0.00,VWS V14.00,2013-02-08 05:05:00,
2013-02-08 07:10:00,47.4,40.2,29.53,West,270,1.5,1.5,76,0.00,,,0.00,VWS V14.00,2013-02-08 05:10:00,
2013-02-08 07:15:00,47.4,40.2,29.53,NNW,338,0.8,2.2,76,0.00,,,0.00,VWS V14.00,2013-02-08 05:15:00,
2013-02-08 07:20:00,47.4,40.6,29.54,NNW,338,1.5,1.5,77,0.00,,,0.00,VWS V14.00,2013-02-08 05:20:00,
2013-02-08 07:21:00,47.4,40.6,29.54,NNW,338,1.5,1.5,77,0.00,,,0.00,VWS V14.00,2013-02-08 05:21:00,
2013-02-08 07:25:00,47.4,40.6,29.54,WNW,292,0.0,1.5,77,0.00,,,0.00,VWS V14.00,2013-02-08 05:25:00,
2013-02-08 07:26:00,47.4,40.6,29.54,WNW,292,0.0,0.0,77,0.00,,,0.00,VWS V14.00,2013-02-08 05:26:00,
2013-02-08 07:30:00,47.3,40.5,29.55,North,0,0.0,1.5,77,0.00,,,0.00,VWS V14.00,2013-02-08 05:30:00,
2013-02-08 07:31:00,47.3,40.5,29.55,North,0,0.0,0.0,77,0.00,,,0.00,VWS V14.00,2013-02-08 05:31:00,
2013-02-08 07:35:00,47.3,40.5,29.55,West,270,0.0,0.0,77,0.00,,,0.00,VWS V14.00,2013-02-08 05:35:00,
2013-02-08 07:36:00,47.3,40.5,29.55,West,270,0.0,0.0,77,0.00,,,0.00,VWS V14.00,2013-02-08 05:36:00,
2013-02-08 07:40:00,47.3,40.5,29.55,NW,315,0.0,0.0,77,0.00,,,0.00,VWS V14.00,2013-02-08 05:40:00,
2013-02-08 07:41:00,47.3,40.5,29.55,NW,315,0.0,0.0,77,0.00,,,0.00,VWS V14.00,2013-02-08 05:41:00,
2013-02-08 07:45:00,47.4,40.6,29.55,SW,225,0.0,0.0,77,0.00,,,0.00,VWS V14.00,2013-02-08 05:45:00,
2013-02-08 07:46:00,47.4,40.6,29.55,SW,225,0.0,0.0,77,0.00,,,0.00,VWS V14.00,2013-02-08 05:46:00,
2013-02-08 07:50:00,47.6,41.1,29.55,SW,225,0.0,0.0,78,0.00,,,0.00,VWS V14.00,2013-02-08 05:50:00,
2013-02-08 07:51:00,47.6,41.1,29.55,SW,225,0.0,0.0,78,0.00,,,0.00,VWS V14.00,2013-02-08 05:51:00,
2013-02-08 07:55:00,47.8,41.3,29.55,SW,225,0.0,0.0,78,0.00,,,0.00,VWS V14.00,2013-02-08 05:55:00,
2013-02-08 07:56:00,47.8,41.3,29.55,SW,225,0.0,0.0,78,0.00,,,0.00,VWS V14.00,2013-02-08 05:56:00,
2013-02-08 08:00:00,48.0,41.5,29.55,SE,135,0.0,0.0,78,0.00,,,0.00,VWS V14.00,2013-02-08 06:00:00,
2013-02-08 08:01:00,48.2,41.7,29.55,ENE,68,0.0,0.0,78,0.00,,,0.00,VWS V14.00,2013-02-08 06:01:00,
2013-02-08 08:05:00,48.5,41.6,29.55,NE,45,0.0,0.0,77,0.00,,,0.00,VWS V14.00,2013-02-08 06:05:00,
2013-02-08 08:06:00,48.5,41.6,29.55,NE,45,0.0,0.0,77,0.00,,,0.00,VWS V14.00,2013-02-08 06:06:00,
2013-02-08 08:10:00,48.7,41.8,29.55,NNE,22,0.0,0.0,77,0.00,,,0.00,VWS V14.00,2013-02-08 06:10:00,
2013-02-08 08:11:00,48.7,41.8,29.55,NNE,22,0.0,0.0,77,0.00,,,0.00,VWS V14.00,2013-02-08 06:11:00,
2013-02-08 08:12:00,48.7,41.8,29.55,NNE,22,0.0,0.0,77,0.00,,,0.00,VWS V14.00,2013-02-08 06:12:00,
2013-02-08 08:15:00,49.1,42.5,29.55,NE,45,0.0,0.0,78,0.00,,,0.00,VWS V14.00,2013-02-08 06:15:00,
2013-02-08 08:16:00,49.1,42.5,29.55,NE,45,0.0,0.0,78,0.00,,,0.00,VWS V14.00,2013-02-08 06:16:00,
2013-02-08 08:17:00,49.1,42.5,29.55,NE,45,0.0,0.0,78,0.00,,,0.00,VWS V14.00,2013-02-08 06:17:00,
2013-02-08 08:20:00,49.2,42.3,29.55,SW,225,0.0,0.0,77,0.00,,,0.00,VWS V14.00,2013-02-08 06:20:00,
2013-02-08 08:21:00,49.2,42.3,29.55,SW,225,0.0,0.0,77,0.00,,,0.00,VWS V14.00,2013-02-08 06:21:00,
2013-02-08 08:22:00,49.2,42.3,29.55,SSW,202,0.0,0.0,77,0.00,,,0.00,VWS V14.00,2013-02-08 06:22:00,
2013-02-08 08:25:00,49.6,42.4,29.56,SW,225,0.0,0.0,76,0.00,,,0.00,VWS V14.00,2013-02-08 06:25:00,
2013-02-08 08:26:00,49.6,42.4,29.56,SW,225,0.0,0.0,76,0.00,,,0.00,VWS V14.00,2013-02-08 06:26:00,
2013-02-08 08:27:00,49.6,42.4,29.56,WSW,248,0.6,0.6,76,0.00,,,0.00,VWS V14.00,2013-02-08 06:27:00,
2013-02-08 08:30:00,49.6,42.0,29.56,WSW,248,0.0,0.0,75,0.00,,,0.00,VWS V14.00,2013-02-08 06:30:00,
2013-02-08 08:31:00,49.6,42.0,29.56,WSW,248,0.0,0.0,75,0.00,,,0.00,VWS V14.00,2013-02-08 06:31:00,
2013-02-08 08:32:00,49.8,42.2,29.56,West,270,0.0,0.0,75,0.00,,,0.00,VWS V14.00,2013-02-08 06:32:00,
2013-02-08 08:35:00,49.8,42.2,29.55,West,270,0.0,0.0,75,0.00,,,0.00,VWS V14.00,2013-02-08 06:35:00,
2013-02-08 08:36:00,49.8,42.2,29.55,West,270,0.0,0.0,75,0.00,,,0.00,VWS V14.00,2013-02-08 06:36:00,
2013-02-08 08:37:00,49.8,41.9,29.56,WSW,248,0.0,0.0,74,0.00,,,0.00,VWS V14.00,2013-02-08 06:37:00,
2013-02-08 08:40:00,49.8,41.9,29.55,WNW,292,0.0,0.0,74,0.00,,,0.00,VWS V14.00,2013-02-08 06:40:00,
2013-02-08 08:41:00,49.8,41.9,29.55,WNW,292,0.0,0.0,74,0.00,,,0.00,VWS V14.00,2013-02-08 06:41:00,
2013-02-08 08:43:00,49.8,41.9,29.55,West,270,0.0,0.0,74,0.00,,,0.00,VWS V14.00,2013-02-08 06:43:00,
2013-02-08 08:46:00,50.0,42.4,29.56,SW,225,0.0,0.0,75,0.00,,,0.00,VWS V14.00,2013-02-08 06:46:00,
2013-02-08 08:48:00,50.1,42.5,29.55,SW,225,0.0,0.0,75,0.00,,,0.00,VWS V14.00,2013-02-08 06:48:00,
2013-02-08 08:51:00,50.1,42.5,29.56,SW,225,0.0,0.0,75,0.00,,,0.00,VWS V14.00,2013-02-08 06:51:00,
2013-02-08 08:53:00,50.1,42.5,29.55,WSW,248,0.0,0.0,75,0.00,,,0.00,VWS V14.00,2013-02-08 06:53:00,
2013-02-08 08:56:00,50.1,42.5,29.56,West,270,0.0,0.0,75,0.00,,,0.00,VWS V14.00,2013-02-08 06:56:00,
2013-02-08 08:58:00,50.1,42.5,29.56,West,270,1.1,1.1,75,0.00,,,0.00,VWS V14.00,2013-02-08 06:58:00,
2013-02-08 09:01:00,50.1,42.5,29.56,SW,225,0.8,0.8,75,0.00,,,0.00,VWS V14.00,2013-02-08 07:01:00,
2013-02-08 09:03:00,50.1,42.5,29.56,WNW,292,0.0,0.8,75,0.00,,,0.00,VWS V14.00,2013-02-08 07:03:00,
2013-02-08 09:06:00,49.8,42.2,29.56,WNW,292,0.0,0.0,75,0.00,,,0.00,VWS V14.00,2013-02-08 07:06:00,
2013-02-08 09:08:00,49.8,41.9,29.56,WNW,292,0.0,0.0,74,0.00,,,0.00,VWS V14.00,2013-02-08 07:08:00,
2013-02-08 09:11:00,50.0,42.0,29.56,WNW,292,0.8,2.4,74,0.00,,,0.00,VWS V14.00,2013-02-08 07:11:00,
2013-02-08 09:12:00,50.0,42.0,29.56,WNW,292,0.8,2.4,74,0.00,,,0.00,VWS V14.00,2013-02-08 07:12:00,
2013-02-08 09:13:00,49.8,41.9,29.56,NW,315,0.0,2.4,74,0.00,,,0.00,VWS V14.00,2013-02-08 07:13:00,
2013-02-08 09:16:00,49.8,42.2,29.56,NNW,338,0.0,0.0,75,0.00,,,0.00,VWS V14.00,2013-02-08 07:16:00,
2013-02-08 09:17:00,49.8,42.2,29.56,NNW,338,0.0,0.0,75,0.00,,,0.00,VWS V14.00,2013-02-08 07:17:00,
2013-02-08 09:18:00,49.8,42.5,29.56,NNW,338,0.0,0.0,76,0.00,,,0.00,VWS V14.00,2013-02-08 07:18:00,
2013-02-08 09:21:00,50.1,42.5,29.56,NNE,22,0.0,0.0,75,0.00,,,0.00,VWS V14.00,2013-02-08 07:21:00,
2013-02-08 09:22:00,50.1,42.5,29.56,NNE,22,0.0,0.0,75,0.00,,,0.00,VWS V14.00,2013-02-08 07:22:00,
2013-02-08 09:23:00,50.1,42.5,29.56,NNE,22,0.0,0.0,75,0.00,,,0.00,VWS V14.00,2013-02-08 07:23:00,
2013-02-08 09:26:00,50.3,42.7,29.56,NE,45,0.0,0.0,75,0.00,,,0.00,VWS V14.00,2013-02-08 07:26:00,
2013-02-08 09:27:00,50.3,42.7,29.56,NE,45,0.0,0.0,75,0.00,,,0.00,VWS V14.00,2013-02-08 07:27:00,
2013-02-08 09:28:00,50.5,42.9,29.56,NNE,22,0.0,0.0,75,0.00,,,0.00,VWS V14.00,2013-02-08 07:28:00,
2013-02-08 09:31:00,50.5,42.5,29.56,NNE,22,0.0,0.0,74,0.00,,,0.00,VWS V14.00,2013-02-08 07:31:00,
2013-02-08 09:32:00,50.5,42.5,29.56,NNE,22,0.0,0.0,74,0.00,,,0.00,VWS V14.00,2013-02-08 07:32:00,
2013-02-08 09:33:00,50.7,42.7,29.57,NNE,22,0.0,0.0,74,0.00,,,0.00,VWS V14.00,2013-02-08 07:33:00,
2013-02-08 09:36:00,50.7,42.0,29.57,WNW,292,0.0,0.0,72,0.00,,,0.00,VWS V14.00,2013-02-08 07:36:00,
2013-02-08 09:37:00,50.7,42.0,29.57,WNW,292,0.0,0.0,72,0.00,,,0.00,VWS V14.00,2013-02-08 07:37:00,
2013-02-08 09:39:00,50.7,42.0,29.56,WNW,292,0.0,0.0,72,0.00,,,0.00,VWS V14.00,2013-02-08 07:39:00,
2013-02-08 09:41:00,50.9,42.2,29.57,NW,315,0.0,0.0,72,0.00,,,0.00,VWS V14.00,2013-02-08 07:41:00,
2013-02-08 09:42:00,50.9,42.2,29.57,NW,315,0.0,0.0,72,0.00,,,0.00,VWS V14.00,2013-02-08 07:42:00,
2013-02-08 09:44:00,50.9,41.8,29.57,WNW,292,2.0,2.0,71,0.00,,,0.00,VWS V14.00,2013-02-08 07:44:00,
2013-02-08 09:46:00,50.9,41.5,29.56,NNW,338,0.0,0.0,70,0.00,,,0.00,VWS V14.00,2013-02-08 07:46:00,
2013-02-08 09:47:00,50.9,41.5,29.56,NNW,338,0.0,0.0,70,0.00,,,0.00,VWS V14.00,2013-02-08 07:47:00,
2013-02-08 09:49:00,51.0,41.6,29.56,SW,225,0.8,0.8,70,0.00,,,0.00,VWS V14.00,2013-02-08 07:49:00,
2013-02-08 09:51:00,51.0,41.6,29.56,SSW,202,0.8,0.8,70,0.00,,,0.00,VWS V14.00,2013-02-08 07:51:00,
2013-02-08 09:52:00,51.0,41.6,29.56,SSW,202,0.8,0.8,70,0.00,,,0.00,VWS V14.00,2013-02-08 07:52:00,
2013-02-08 09:54:00,51.0,41.6,29.56,SSW,202,0.8,0.8,70,0.00,,,0.00,VWS V14.00,2013-02-08 07:54:00,
2013-02-08 09:56:00,51.6,42.2,29.56,WSW,248,0.0,0.0,70,0.00,,,0.00,VWS V14.00,2013-02-08 07:56:00,
2013-02-08 09:57:00,51.6,42.2,29.56,WSW,248,0.0,0.0,70,0.00,,,0.00,VWS V14.00,2013-02-08 07:57:00,
2013-02-08 09:59:00,51.6,42.2,29.56,SW,225,0.0,0.0,70,0.00,,,0.00,VWS V14.00,2013-02-08 07:59:00,
2013-02-08 10:01:00,51.8,42.7,29.56,SW,225,0.0,0.0,71,0.00,,,0.00,VWS V14.00,2013-02-08 08:01:00,
2013-02-08 10:02:00,51.8,42.7,29.56,SW,225,0.0,0.0,71,0.00,,,0.00,VWS V14.00,2013-02-08 08:02:00,
2013-02-08 10:04:00,51.9,42.8,29.56,South,180,0.0,0.0,71,0.00,,,0.00,VWS V14.00,2013-02-08 08:04:00,
2013-02-08 10:06:00,52.1,43.0,29.56,South,180,0.0,0.0,71,0.00,,,0.00,VWS V14.00,2013-02-08 08:06:00,
2013-02-08 10:07:00,52.1,42.6,29.56,South,180,0.0,0.0,70,0.00,,,0.00,VWS V14.00,2013-02-08 08:07:00,
2013-02-08 10:09:00,52.1,42.6,29.56,WSW,248,2.4,2.4,70,0.00,,,0.00,VWS V14.00,2013-02-08 08:09:00,
2013-02-08 10:11:00,52.1,42.2,29.56,SSW,202,0.0,2.4,69,0.00,,,0.00,VWS V14.00,2013-02-08 08:11:00,
2013-02-08 10:12:00,52.1,42.2,29.56,SSW,202,0.0,2.4,69,0.00,,,0.00,VWS V14.00,2013-02-08 08:12:00,
2013-02-08 10:13:00,52.1,42.2,29.56,SSW,202,0.0,2.4,69,0.00,,,0.00,VWS V14.00,2013-02-08 08:13:00,
2013-02-08 10:14:00,51.9,42.1,29.56,SW,225,2.0,2.4,69,0.00,,,0.00,VWS V14.00,2013-02-08 08:14:00,
2013-02-08 10:16:00,51.9,42.1,29.56,SSW,202,3.3,3.3,69,0.00,,,0.00,VWS V14.00,2013-02-08 08:16:00,
2013-02-08 10:17:00,51.9,42.4,29.56,SSW,202,2.4,3.3,70,0.00,,,0.00,VWS V14.00,2013-02-08 08:17:00,
2013-02-08 10:18:00,51.9,42.4,29.56,SSW,202,2.4,3.3,70,0.00,,,0.00,VWS V14.00,2013-02-08 08:18:00,
2013-02-08 10:19:00,52.1,42.2,29.56,SW,225,0.0,3.3,69,0.00,,,0.00,VWS V14.00,2013-02-08 08:19:00,
2013-02-08 10:21:00,52.3,42.5,29.56,SW,225,4.6,4.6,69,0.00,,,0.00,VWS V14.00,2013-02-08 08:21:00,
2013-02-08 10:22:00,52.3,42.5,29.56,SW,225,4.6,4.6,69,0.00,,,0.00,VWS V14.00,2013-02-08 08:22:00,
2013-02-08 10:23:00,52.3,42.5,29.56,SW,225,4.6,4.6,69,0.00,,,0.00,VWS V14.00,2013-02-08 08:23:00,
2013-02-08 10:24:00,52.3,42.5,29.56,West,270,2.0,4.6,69,0.00,,,0.00,VWS V14.00,2013-02-08 08:24:00,
2013-02-08 10:26:00,52.3,42.1,29.56,SSW,202,0.0,2.0,68,0.00,,,0.00,VWS V14.00,2013-02-08 08:26:00,
2013-02-08 10:27:00,52.3,42.1,29.56,SSW,202,0.0,2.0,68,0.00,,,0.00,VWS V14.00,2013-02-08 08:27:00,
2013-02-08 10:28:00,52.3,42.1,29.56,SSW,202,0.0,2.0,68,0.00,,,0.00,VWS V14.00,2013-02-08 08:28:00,
2013-02-08 10:29:00,52.3,42.1,29.57,WSW,248,0.0,2.0,68,0.00,,,0.00,VWS V14.00,2013-02-08 08:29:00,
2013-02-08 10:32:00,52.5,42.3,29.56,SSW,202,1.3,1.3,68,0.00,,,0.00,VWS V14.00,2013-02-08 08:32:00,
2013-02-08 10:33:00,52.7,42.1,29.56,WSW,248,0.8,1.3,67,0.00,,,0.00,VWS V14.00,2013-02-08 08:33:00,
2013-02-08 10:34:00,52.8,42.2,29.57,SW,225,3.1,3.1,67,0.00,,,0.00,VWS V14.00,2013-02-08 08:34:00,
2013-02-08 10:37:00,52.8,42.2,29.57,SSW,202,4.4,4.4,67,0.00,,,0.00,VWS V14.00,2013-02-08 08:37:00,
2013-02-08 10:38:00,52.8,42.5,29.56,SSW,202,4.4,4.4,68,0.00,,,0.00,VWS V14.00,2013-02-08 08:38:00,
2013-02-08 10:39:00,53.2,42.5,29.57,SSE,158,3.8,4.4,67,0.00,,,0.00,VWS V14.00,2013-02-08 08:39:00,
2013-02-08 10:42:00,53.4,42.3,29.57,WSW,248,2.9,3.8,66,0.00,,,0.00,VWS V14.00,2013-02-08 08:42:00,
2013-02-08 10:43:00,53.2,42.2,29.57,WSW,248,0.6,3.8,66,0.00,,,0.00,VWS V14.00,2013-02-08 08:43:00,
2013-02-08 10:44:00,53.2,42.2,29.57,WSW,248,0.6,3.8,66,0.00,,,0.00,VWS V14.00,2013-02-08 08:44:00,
2013-02-08 10:47:00,53.4,42.7,29.57,SW,225,5.8,5.8,67,0.00,,,0.00,VWS V14.00,2013-02-08 08:47:00,
2013-02-08 10:48:00,53.2,42.5,29.57,SSW,202,6.7,6.7,67,0.00,,,0.00,VWS V14.00,2013-02-08 08:48:00,
2013-02-08 10:49:00,53.4,42.7,29.57,SSW,202,1.5,6.7,67,0.00,,,0.00,VWS V14.00,2013-02-08 08:49:00,
2013-02-08 10:52:00,53.4,42.7,29.57,SSW,202,5.3,5.3,67,0.00,,,0.00,VWS V14.00,2013-02-08 08:52:00,
2013-02-08 10:53:00,53.7,43.0,29.57,SSW,202,5.3,5.3,67,0.00,,,0.00,VWS V14.00,2013-02-08 08:53:00,
2013-02-08 10:55:00,53.9,42.0,29.57,ESE,112,3.1,5.3,64,0.00,,,0.00,VWS V14.00,2013-02-08 08:55:00,
2013-02-08 10:57:00,54.3,42.0,29.57,SW,225,4.6,4.6,63,0.00,,,0.00,VWS V14.00,2013-02-08 08:57:00,
2013-02-08 10:58:00,54.5,42.2,29.57,SSW,202,3.5,4.6,63,0.00,,,0.00,VWS V14.00,2013-02-08 08:58:00,
2013-02-08 11:00:00,54.5,42.2,29.57,SSW,202,3.5,4.6,63,0.00,,,0.00,VWS V14.00,2013-02-08 09:00:00,
2013-02-08 11:02:00,54.6,41.9,29.57,SW,225,5.1,5.1,62,0.00,,,0.00,VWS V14.00,2013-02-08 09:02:00,
2013-02-08 11:03:00,54.8,42.5,29.57,SW,225,7.8,7.8,63,0.00,,,0.00,VWS V14.00,2013-02-08 09:03:00,
2013-02-08 11:05:00,55.0,42.2,29.57,SSW,202,9.8,9.8,62,0.00,,,0.00,VWS V14.00,2013-02-08 09:05:00,
2013-02-08 11:07:00,55.0,42.2,29.57,WSW,248,5.8,9.8,62,0.00,,,0.00,VWS V14.00,2013-02-08 09:07:00,
2013-02-08 11:08:00,55.2,42.4,29.57,SSW,202,4.4,9.8,62,0.00,,,0.00,VWS V14.00,2013-02-08 09:08:00,
2013-02-08 11:09:00,55.2,42.4,29.57,SSW,202,4.4,9.8,62,0.00,,,0.00,VWS V14.00,2013-02-08 09:09:00,
2013-02-08 11:10:00,55.2,42.0,29.57,SSW,202,4.4,9.8,61,0.00,,,0.00,VWS V14.00,2013-02-08 09:10:00,
2013-02-08 11:12:00,55.0,41.4,29.57,South,180,3.1,4.4,60,0.00,,,0.00,VWS V14.00,2013-02-08 09:12:00,
2013-02-08 11:14:00,54.8,40.8,29.57,West,270,4.2,4.4,59,0.00,,,0.00,VWS V14.00,2013-02-08 09:14:00,
2013-02-08 11:15:00,54.8,40.8,29.57,West,270,4.2,4.4,59,0.00,,,0.00,VWS V14.00,2013-02-08 09:15:00,
2013-02-08 11:17:00,54.5,40.5,29.57,SSE,158,3.8,3.8,59,0.00,,,0.00,VWS V14.00,2013-02-08 09:17:00,
2013-02-08 11:19:00,54.5,40.5,29.57,East,90,0.8,3.8,59,0.00,,,0.00,VWS V14.00,2013-02-08 09:19:00,
2013-02-08 11:20:00,54.5,40.9,29.57,SSW,202,5.1,5.1,60,0.00,,,0.00,VWS V14.00,2013-02-08 09:20:00,
2013-02-08 11:22:00,54.3,40.7,29.57,SSW,202,9.6,9.6,60,0.00,,,0.00,VWS V14.00,2013-02-08 09:22:00,
2013-02-08 11:24:00,54.3,40.7,29.57,SE,135,2.2,9.6,60,0.00,,,0.00,VWS V14.00,2013-02-08 09:24:00,
2013-02-08 11:25:00,54.6,41.0,29.57,SE,135,2.2,9.6,60,0.00,,,0.00,VWS V14.00,2013-02-08 09:25:00,
2013-02-08 11:27:00,54.8,41.2,29.57,SW,225,2.4,2.4,60,0.00,,,0.00,VWS V14.00,2013-02-08 09:27:00,
2013-02-08 11:29:00,55.2,41.6,29.57,SSW,202,12.3,12.3,60,0.00,,,0.00,VWS V14.00,2013-02-08 09:29:00,
2013-02-08 11:30:00,55.2,41.6,29.57,SSW,202,12.3,12.3,60,0.00,,,0.00,VWS V14.00,2013-02-08 09:30:00,
2013-02-08 11:32:00,55.4,41.3,29.57,SSW,202,3.5,7.6,59,0.00,,,0.00,VWS V14.00,2013-02-08 09:32:00,
2013-02-08 11:34:00,55.4,41.3,29.57,SSW,202,3.5,7.6,59,0.00,,,0.00,VWS V14.00,2013-02-08 09:34:00,
2013-02-08 11:35:00,55.4,41.3,29.57,South,180,6.2,7.6,59,0.00,,,0.00,VWS V14.00,2013-02-08 09:35:00,
2013-02-08 11:37:00,55.5,40.5,29.56,SSW,202,10.0,10.0,57,0.00,,,0.00,VWS V14.00,2013-02-08 09:37:00,
2013-02-08 11:39:00,55.5,40.5,29.57,SSW,202,10.0,10.0,57,0.00,,,0.00,VWS V14.00,2013-02-08 09:39:00,
2013-02-08 11:40:00,55.5,40.5,29.57,SW,225,1.5,10.0,57,0.00,,,0.00,VWS V14.00,2013-02-08 09:40:00,
2013-02-08 11:42:00,55.7,41.6,29.57,SE,135,2.4,2.4,59,0.00,,,0.00,VWS V14.00,2013-02-08 09:42:00,
2013-02-08 11:44:00,55.9,41.8,29.57,ESE,112,2.4,2.4,59,0.00,,,0.00,VWS V14.00,2013-02-08 09:44:00,
2013-02-08 11:45:00,55.9,41.3,29.56,SSW,202,9.1,9.1,58,0.00,,,0.00,VWS V14.00,2013-02-08 09:45:00,
2013-02-08 11:47:00,56.1,41.1,29.57,East,90,4.2,9.1,57,0.00,,,0.00,VWS V14.00,2013-02-08 09:47:00,
2013-02-08 11:49:00,56.1,40.6,29.57,SSW,202,14.9,14.9,56,0.00,,,0.00,VWS V14.00,2013-02-08 09:49:00,
2013-02-08 11:50:00,56.1,40.6,29.57,SSW,202,14.9,14.9,56,0.00,,,0.00,VWS V14.00,2013-02-08 09:50:00,
2013-02-08 11:52:00,56.1,41.1,29.56,SSW,202,11.6,14.9,57,0.00,,,0.00,VWS V14.00,2013-02-08 09:52:00,
2013-02-08 11:54:00,55.9,40.9,29.57,WSW,248,6.2,14.9,57,0.00,,,0.00,VWS V14.00,2013-02-08 09:54:00,
2013-02-08 11:55:00,55.9,40.9,29.56,WSW,248,6.2,6.2,57,0.00,,,0.00,VWS V14.00,2013-02-08 09:55:00,
2013-02-08 11:57:00,55.9,40.9,29.56,SSW,202,5.5,6.2,57,0.00,,,0.00,VWS V14.00,2013-02-08 09:57:00,
2013-02-08 11:59:00,55.9,40.9,29.56,SW,225,10.2,10.2,57,0.00,,,0.00,VWS V14.00,2013-02-08 09:59:00,
2013-02-08 12:00:00,56.1,40.6,29.56,SSW,202,6.4,6.4,56,0.00,,,0.00,VWS V14.00,2013-02-08 10:00:00,
2013-02-08 12:02:00,55.9,40.9,29.56,West,270,5.3,6.4,57,0.00,,,0.00,VWS V14.00,2013-02-08 10:02:00,
2013-02-08 12:04:00,55.9,41.3,29.56,SW,225,4.4,6.4,58,0.00,,,0.00,VWS V14.00,2013-02-08 10:04:00,
2013-02-08 12:05:00,55.9,41.3,29.56,SW,225,4.4,4.4,58,0.00,,,0.00,VWS V14.00,2013-02-08 10:05:00,
2013-02-08 12:07:00,55.9,41.3,29.56,SSW,202,8.2,8.2,58,0.00,,,0.00,VWS V14.00,2013-02-08 10:07:00,
2013-02-08 12:09:00,55.9,41.3,29.56,West,270,10.9,10.9,58,0.00,,,0.00,VWS V14.00,2013-02-08 10:09:00,
2013-02-08 12:10:00,55.9,41.3,29.56,West,270,10.9,10.9,58,0.00,,,0.00,VWS V14.00,2013-02-08 10:10:00,
2013-02-08 12:12:00,55.7,41.2,29.56,SE,135,0.8,10.9,58,0.00,,,0.00,VWS V14.00,2013-02-08 10:12:00,
2013-02-08 12:14:00,55.5,41.4,29.56,SSE,158,4.6,10.9,59,0.00,,,0.00,VWS V14.00,2013-02-08 10:14:00,
2013-02-08 12:15:00,55.5,41.0,29.56,SSW,202,10.0,10.0,58,0.00,,,0.00,VWS V14.00,2013-02-08 10:15:00,
2013-02-08 12:17:00,55.5,41.4,29.55,ENE,68,0.8,10.0,59,0.00,,,0.00,VWS V14.00,2013-02-08 10:17:00,
2013-02-08 12:19:00,55.5,40.5,29.55,SSW,202,7.1,10.0,57,0.00,,,0.00,VWS V14.00,2013-02-08 10:19:00,
2013-02-08 12:20:00,55.5,40.5,29.55,SSW,202,7.1,7.1,57,0.00,,,0.00,VWS V14.00,2013-02-08 10:20:00,
2013-02-08 12:22:00,55.5,41.0,29.55,SW,225,4.6,7.1,58,0.00,,,0.00,VWS V14.00,2013-02-08 10:22:00,
2013-02-08 12:24:00,55.4,41.3,29.55,SSW,202,5.3,7.1,59,0.00,,,0.00,VWS V14.00,2013-02-08 10:24:00,
2013-02-08 12:25:00,55.4,41.3,29.56,SSW,202,5.3,5.3,59,0.00,,,0.00,VWS V14.00,2013-02-08 10:25:00,
2013-02-08 12:27:00,55.5,41.4,29.55,SSW,202,10.2,10.2,59,0.00,,,0.00,VWS V14.00,2013-02-08 10:27:00,
2013-02-08 12:29:00,55.4,41.3,29.55,SSW,202,4.0,10.2,59,0.00,,,0.00,VWS V14.00,2013-02-08 10:29:00,
2013-02-08 12:30:00,55.2,41.1,29.55,WSW,248,3.8,3.8,59,0.00,,,0.00,VWS V14.00,2013-02-08 10:30:00,
2013-02-08 12:32:00,55.4,41.3,29.55,WSW,248,0.0,3.8,59,0.00,,,0.00,VWS V14.00,2013-02-08 10:32:00,
2013-02-08 12:34:00,55.4,41.3,29.55,SW,225,4.6,4.6,59,0.00,,,0.00,VWS V14.00,2013-02-08 10:34:00,
2013-02-08 12:35:00,55.4,41.3,29.55,SW,225,4.6,4.6,59,0.00,,,0.00,VWS V14.00,2013-02-08 10:35:00,
2013-02-08 12:37:00,55.5,41.4,29.55,SSW,202,7.3,7.3,59,0.00,,,0.00,VWS V14.00,2013-02-08 10:37:00,
2013-02-08 12:39:00,55.5,41.4,29.55,West,270,1.3,7.3,59,0.00,,,0.00,VWS V14.00,2013-02-08 10:39:00,
2013-02-08 12:41:00,55.5,41.4,29.55,West,270,1.3,1.3,59,0.00,,,0.00,VWS V14.00,2013-02-08 10:41:00,
2013-02-08 12:42:00,55.7,41.6,29.55,West,270,3.5,3.5,59,0.00,,,0.00,VWS V14.00,2013-02-08 10:42:00,
2013-02-08 12:44:00,55.7,41.6,29.55,SW,225,6.9,6.9,59,0.00,,,0.00,VWS V14.00,2013-02-08 10:44:00,
2013-02-08 12:45:00,55.7,41.6,29.55,SW,225,6.9,6.9,59,0.00,,,0.00,VWS V14.00,2013-02-08 10:45:00,
2013-02-08 12:46:00,55.5,41.9,29.55,SSW,202,8.9,8.9,60,0.00,,,0.00,VWS V14.00,2013-02-08 10:46:00,
2013-02-08 12:47:00,55.7,41.6,29.55,SW,225,7.6,8.9,59,0.00,,,0.00,VWS V14.00,2013-02-08 10:47:00,
2013-02-08 12:49:00,55.7,41.6,29.55,SW,225,4.6,8.9,59,0.00,,,0.00,VWS V14.00,2013-02-08 10:49:00,
2013-02-08 12:50:00,55.7,41.6,29.55,SW,225,4.6,8.9,59,0.00,,,0.00,VWS V14.00,2013-02-08 10:50:00,
2013-02-08 12:51:00,55.7,41.6,29.55,SW,225,4.6,4.6,59,0.00,,,0.00,VWS V14.00,2013-02-08 10:51:00,
2013-02-08 12:52:00,55.5,41.9,29.55,WSW,248,10.9,10.9,60,0.00,,,0.00,VWS V14.00,2013-02-08 10:52:00,
2013-02-08 12:54:00,55.4,41.8,29.55,SW,225,2.4,10.9,60,0.00,,,0.00,VWS V14.00,2013-02-08 10:54:00,
2013-02-08 12:55:00,55.4,41.8,29.55,SW,225,2.4,10.9,60,0.00,,,0.00,VWS V14.00,2013-02-08 10:55:00,
2013-02-08 12:56:00,55.4,41.8,29.55,SW,225,2.4,2.4,60,0.00,,,0.00,VWS V14.00,2013-02-08 10:56:00,
2013-02-08 12:57:00,55.4,42.2,29.55,West,270,1.7,2.4,61,0.00,,,0.00,VWS V14.00,2013-02-08 10:57:00,
2013-02-08 13:00:00,55.5,42.3,29.55,SW,225,3.3,3.3,61,0.00,,,0.00,VWS V14.00,2013-02-08 11:00:00,
2013-02-08 13:01:00,55.5,42.3,29.55,SSW,202,10.2,10.2,61,0.00,,,0.00,VWS V14.00,2013-02-08 11:01:00,
2013-02-08 13:02:00,55.7,42.0,29.55,WSW,248,9.1,10.2,60,0.00,,,0.00,VWS V14.00,2013-02-08 11:02:00,
2013-02-08 13:05:00,55.7,42.0,29.55,SSW,202,6.2,10.2,60,0.00,,,0.00,VWS V14.00,2013-02-08 11:05:00,
2013-02-08 13:06:00,55.7,42.0,29.56,SSW,202,6.2,6.2,60,0.00,,,0.00,VWS V14.00,2013-02-08 11:06:00,
2013-02-08 13:07:00,55.7,41.6,29.56,WSW,248,6.0,6.2,59,0.00,,,0.00,VWS V14.00,2013-02-08 11:07:00,
2013-02-08 13:10:00,55.5,41.4,29.56,WNW,292,0.8,6.2,59,0.00,,,0.00,VWS V14.00,2013-02-08 11:10:00,
2013-02-08 13:11:00,55.5,41.4,29.56,WNW,292,0.8,0.8,59,0.00,,,0.00,VWS V14.00,2013-02-08 11:11:00,
2013-02-08 13:12:00,55.5,41.4,29.56,SW,225,1.5,1.5,59,0.00,,,0.00,VWS V14.00,2013-02-08 11:12:00,
2013-02-08 13:15:00,55.5,41.9,29.56,SSW,202,3.8,3.8,60,0.00,,,0.00,VWS V14.00,2013-02-08 11:15:00,
2013-02-08 13:16:00,55.5,41.4,29.56,WSW,248,2.2,2.2,59,0.00,,,0.00,VWS V14.00,2013-02-08 11:16:00,
2013-02-08 13:17:00,55.4,41.8,29.56,SW,225,6.0,6.0,60,0.00,,,0.00,VWS V14.00,2013-02-08 11:17:00,
2013-02-08 13:20:00,55.4,41.3,29.56,WSW,248,1.7,6.0,59,0.00,,,0.00,VWS V14.00,2013-02-08 11:20:00,
2013-02-08 13:21:00,55.4,41.3,29.56,WSW,248,1.7,1.7,59,0.00,,,0.00,VWS V14.00,2013-02-08 11:21:00,
2013-02-08 13:22:00,55.2,41.1,29.56,South,180,2.0,2.0,59,0.00,,,0.00,VWS V14.00,2013-02-08 11:22:00,
2013-02-08 13:25:00,55.2,40.7,29.56,South,180,6.0,6.0,58,0.00,,,0.00,VWS V14.00,2013-02-08 11:25:00,
2013-02-08 13:26:00,55.2,41.1,29.56,SW,225,3.3,6.0,59,0.00,,,0.00,VWS V14.00,2013-02-08 11:26:00,
2013-02-08 13:28:00,55.2,41.1,29.56,SW,225,3.3,6.0,59,0.00,,,0.00,VWS V14.00,2013-02-08 11:28:00,
2013-02-08 13:30:00,55.2,41.6,29.56,WSW,248,0.0,6.0,60,0.00,,,0.00,VWS V14.00,2013-02-08 11:30:00,
2013-02-08 13:31:00,55.2,41.6,29.56,WSW,248,4.9,4.9,60,0.00,,,0.00,VWS V14.00,2013-02-08 11:31:00,
2013-02-08 13:33:00,55.2,41.6,29.56,SW,225,0.0,4.9,60,0.00,,,0.00,VWS V14.00,2013-02-08 11:33:00,
2013-02-08 13:35:00,55.2,41.6,29.56,ENE,68,0.0,4.9,60,0.00,,,0.00,VWS V14.00,2013-02-08 11:35:00,
2013-02-08 13:36:00,55.2,41.6,29.56,SSW,202,1.5,1.5,60,0.00,,,0.00,VWS V14.00,2013-02-08 11:36:00,
2013-02-08 13:38:00,55.2,41.6,29.56,SSW,202,1.5,1.5,60,0.00,,,0.00,VWS V14.00,2013-02-08 11:38:00,
2013-02-08 13:40:00,55.0,41.4,29.56,SSW,202,1.1,1.5,60,0.00,,,0.00,VWS V14.00,2013-02-08 11:40:00,
2013-02-08 13:41:00,55.0,41.4,29.56,WSW,248,1.3,1.3,60,0.00,,,0.00,VWS V14.00,2013-02-08 11:41:00,
2013-02-08 13:43:00,55.0,41.4,29.55,WSW,248,1.3,1.3,60,0.00,,,0.00,VWS V14.00,2013-02-08 11:43:00,
2013-02-08 13:45:00,55.2,42.0,29.56,WSW,248,2.2,2.2,61,0.00,,,0.00,VWS V14.00,2013-02-08 11:45:00,
2013-02-08 13:46:00,55.0,41.8,29.56,SW,225,3.8,3.8,61,0.00,,,0.00,VWS V14.00,2013-02-08 11:46:00,
2013-02-08 13:48:00,55.2,42.0,29.56,SW,225,2.0,3.8,61,0.00,,,0.00,VWS V14.00,2013-02-08 11:48:00,
2013-02-08 13:50:00,55.2,42.0,29.56,WSW,248,4.9,4.9,61,0.00,,,0.00,VWS V14.00,2013-02-08 11:50:00,
2013-02-08 13:51:00,55.2,42.0,29.56,SW,225,3.5,4.9,61,0.00,,,0.00,VWS V14.00,2013-02-08 11:51:00,
2013-02-08 13:53:00,55.2,42.0,29.56,SW,225,3.5,4.9,61,0.00,,,0.00,VWS V14.00,2013-02-08 11:53:00,
2013-02-08 13:55:00,55.4,42.2,29.56,West,270,5.3,5.3,61,0.00,,,0.00,VWS V14.00,2013-02-08 11:55:00,
2013-02-08 13:56:00,55.4,42.2,29.55,WSW,248,1.5,5.3,61,0.00,,,0.00,VWS V14.00,2013-02-08 11:56:00,
2013-02-08 13:58:00,55.4,42.2,29.55,SW,225,1.7,5.3,61,0.00,,,0.00,VWS V14.00,2013-02-08 11:58:00,
2013-02-08 14:00:00,55.5,41.9,29.55,SSW,202,2.0,5.3,60,0.00,,,0.00,VWS V14.00,2013-02-08 12:00:00,
2013-02-08 14:01:00,55.5,41.9,29.55,SSW,202,2.0,2.0,60,0.00,,,0.00,VWS V14.00,2013-02-08 12:01:00,
2013-02-08 14:03:00,55.5,41.9,29.55,SSW,202,3.1,3.1,60,0.00,,,0.00,VWS V14.00,2013-02-08 12:03:00,
2013-02-08 14:05:00,55.5,41.9,29.55,NW,315,1.1,3.1,60,0.00,,,0.00,VWS V14.00,2013-02-08 12:05:00,
2013-02-08 14:06:00,55.4,42.2,29.55,NNW,338,1.1,1.1,61,0.00,,,0.00,VWS V14.00,2013-02-08 12:06:00,
2013-02-08 14:08:00,55.4,42.2,29.55,SW,225,4.6,4.6,61,0.00,,,0.00,VWS V14.00,2013-02-08 12:08:00,
2013-02-08 14:10:00,55.4,42.2,29.55,SW,225,4.6,4.6,61,0.00,,,0.00,VWS V14.00,2013-02-08 12:10:00,
2013-02-08 14:11:00,55.4,42.2,29.55,SW,225,4.6,4.6,61,0.00,,,0.00,VWS V14.00,2013-02-08 12:11:00,
2013-02-08 14:13:00,55.2,42.0,29.55,SSW,202,4.6,4.6,61,0.00,,,0.00,VWS V14.00,2013-02-08 12:13:00,
2013-02-08 14:15:00,55.2,42.0,29.55,SW,225,4.9,4.9,61,0.00,,,0.00,VWS V14.00,2013-02-08 12:15:00,
2013-02-08 14:16:00,55.2,42.0,29.55,SW,225,4.9,4.9,61,0.00,,,0.00,VWS V14.00,2013-02-08 12:16:00,
2013-02-08 14:18:00,55.2,42.0,29.55,South,180,3.5,4.9,61,0.00,,,0.00,VWS V14.00,2013-02-08 12:18:00,
2013-02-08 14:20:00,55.5,42.3,29.55,SW,225,0.0,4.9,61,0.00,,,0.00,VWS V14.00,2013-02-08 12:20:00,
2013-02-08 14:21:00,55.5,42.3,29.55,SW,225,0.0,0.0,61,0.00,,,0.00,VWS V14.00,2013-02-08 12:21:00,
2013-02-08 14:23:00,55.7,42.5,29.55,SSW,202,7.6,7.6,61,0.00,,,0.00,VWS V14.00,2013-02-08 12:23:00,
2013-02-08 14:25:00,55.7,42.5,29.55,WSW,248,4.9,7.6,61,0.00,,,0.00,VWS V14.00,2013-02-08 12:25:00,
2013-02-08 14:26:00,55.7,42.5,29.55,WSW,248,4.9,4.9,61,0.00,,,0.00,VWS V14.00,2013-02-08 12:26:00,
2013-02-08 14:28:00,55.5,41.9,29.55,WSW,248,4.0,4.9,60,0.00,,,0.00,VWS V14.00,2013-02-08 12:28:00,
2013-02-08 14:30:00,55.4,41.3,29.55,WSW,248,8.0,8.0,59,0.00,,,0.00,VWS V14.00,2013-02-08 12:30:00,
2013-02-08 14:31:00,55.4,41.3,29.55,WSW,248,8.0,8.0,59,0.00,,,0.00,VWS V14.00,2013-02-08 12:31:00,
2013-02-08 14:33:00,55.2,41.1,29.55,SW,225,4.4,8.0,59,0.00,,,0.00,VWS V14.00,2013-02-08 12:33:00,
2013-02-08 14:35:00,55.2,41.6,29.55,SSE,158,7.3,7.3,60,0.00,,,0.00,VWS V14.00,2013-02-08 12:35:00,
2013-02-08 14:36:00,55.2,41.6,29.55,SSW,202,5.5,7.3,60,0.00,,,0.00,VWS V14.00,2013-02-08 12:36:00,
2013-02-08 14:37:00,55.2,41.6,29.55,SSW,202,5.5,7.3,60,0.00,,,0.00,VWS V14.00,2013-02-08 12:37:00,
2013-02-08 14:38:00,55.2,41.6,29.55,SW,225,5.8,7.3,60,0.00,,,0.00,VWS V14.00,2013-02-08 12:38:00,
2013-02-08 14:40:00,55.2,41.6,29.55,SW,225,2.9,2.9,60,0.00,,,0.00,VWS V14.00,2013-02-08 12:40:00,
2013-02-08 14:41:00,55.0,41.4,29.55,SW,225,2.9,2.9,60,0.00,,,0.00,VWS V14.00,2013-02-08 12:41:00,
2013-02-08 14:42:00,55.0,41.4,29.55,SW,225,2.9,2.9,60,0.00,,,0.00,VWS V14.00,2013-02-08 12:42:00,
2013-02-08 14:43:00,55.0,41.8,29.55,SSW,202,1.3,2.9,61,0.00,,,0.00,VWS V14.00,2013-02-08 12:43:00,
2013-02-08 14:45:00,54.8,41.6,29.55,SSW,202,2.2,2.2,61,0.00,,,0.00,VWS V14.00,2013-02-08 12:45:00,
2013-02-08 14:46:00,54.8,41.6,29.55,SSW,202,2.2,2.2,61,0.00,,,0.00,VWS V14.00,2013-02-08 12:46:00,
2013-02-08 14:47:00,54.8,41.6,29.55,SSW,202,2.2,2.2,61,0.00,,,0.00,VWS V14.00,2013-02-08 12:47:00,
2013-02-08 14:48:00,55.0,41.8,29.55,WSW,248,2.0,2.2,61,0.00,,,0.00,VWS V14.00,2013-02-08 12:48:00,
2013-02-08 14:50:00,55.0,42.2,29.55,SW,225,4.0,4.0,62,0.00,,,0.00,VWS V14.00,2013-02-08 12:50:00,
2013-02-08 14:51:00,55.0,41.8,29.55,SE,135,1.1,4.0,61,0.00,,,0.00,VWS V14.00,2013-02-08 12:51:00,
2013-02-08 14:52:00,55.0,41.8,29.55,SE,135,1.1,4.0,61,0.00,,,0.00,VWS V14.00,2013-02-08 12:52:00,
2013-02-08 14:53:00,55.0,41.8,29.55,SSW,202,5.5,5.5,61,0.00,,,0.00,VWS V14.00,2013-02-08 12:53:00,
2013-02-08 14:55:00,55.2,42.4,29.55,West,270,8.0,8.0,62,0.00,,,0.00,VWS V14.00,2013-02-08 12:55:00,
2013-02-08 14:56:00,55.2,42.4,29.55,West,270,8.0,8.0,62,0.00,,,0.00,VWS V14.00,2013-02-08 12:56:00,
2013-02-08 14:57:00,55.2,42.4,29.55,West,270,8.0,8.0,62,0.00,,,0.00,VWS V14.00,2013-02-08 12:57:00,
2013-02-08 14:58:00,55.2,42.4,29.55,SSE,158,1.5,8.0,62,0.00,,,0.00,VWS V14.00,2013-02-08 12:58:00,
2013-02-08 15:00:00,55.2,42.4,29.54,WSW,248,2.9,2.9,62,0.00,,,0.00,VWS V14.00,2013-02-08 13:00:00,
2013-02-08 15:01:00,55.2,42.4,29.55,WSW,248,2.9,2.9,62,0.00,,,0.00,VWS V14.00,2013-02-08 13:01:00,
2013-02-08 15:02:00,55.2,42.4,29.55,WSW,248,2.9,2.9,62,0.00,,,0.00,VWS V14.00,2013-02-08 13:02:00,
2013-02-08 15:03:00,55.2,42.4,29.55,SSW,202,3.1,3.1,62,0.00,,,0.00,VWS V14.00,2013-02-08 13:03:00,
2013-02-08 15:05:00,55.5,42.3,29.54,South,180,2.0,2.0,61,0.00,,,0.00,VWS V14.00,2013-02-08 13:05:00,
2013-02-08 15:06:00,55.5,41.9,29.55,SSW,202,3.3,3.3,60,0.00,,,0.00,VWS V14.00,2013-02-08 13:06:00,
2013-02-08 15:07:00,55.5,41.9,29.55,SSW,202,3.3,3.3,60,0.00,,,0.00,VWS V14.00,2013-02-08 13:07:00,
2013-02-08 15:08:00,55.5,41.9,29.55,South,180,0.0,3.3,60,0.00,,,0.00,VWS V14.00,2013-02-08 13:08:00,
2013-02-08 15:10:00,55.7,41.6,29.55,South,180,6.9,6.9,59,0.00,,,0.00,VWS V14.00,2013-02-08 13:10:00,
2013-02-08 15:11:00,55.9,41.8,29.55,South,180,6.9,6.9,59,0.00,,,0.00,VWS V14.00,2013-02-08 13:11:00,
2013-02-08 15:12:00,55.9,41.8,29.55,South,180,6.9,6.9,59,0.00,,,0.00,VWS V14.00,2013-02-08 13:12:00,
2013-02-08 15:14:00,55.9,41.8,29.54,WSW,248,3.1,6.9,59,0.00,,,0.00,VWS V14.00,2013-02-08 13:14:00,
2013-02-08 15:15:00,56.1,42.0,29.55,WNW,292,0.0,0.0,59,0.00,,,0.00,VWS V14.00,2013-02-08 13:15:00,
2013-02-08 15:16:00,56.1,42.0,29.54,WNW,292,0.0,0.0,59,0.00,,,0.00,VWS V14.00,2013-02-08 13:16:00,
2013-02-08 15:17:00,56.1,42.0,29.54,WNW,292,0.0,0.0,59,0.00,,,0.00,VWS V14.00,2013-02-08 13:17:00,
2013-02-08 15:19:00,56.1,42.0,29.54,SW,225,7.6,7.6,59,0.00,,,0.00,VWS V14.00,2013-02-08 13:19:00,
2013-02-08 15:20:00,56.3,41.7,29.54,WSW,248,6.2,6.2,58,0.00,,,0.00,VWS V14.00,2013-02-08 13:20:00,
2013-02-08 15:21:00,56.4,41.4,29.55,SW,225,8.5,8.5,57,0.00,,,0.00,VWS V14.00,2013-02-08 13:21:00,
2013-02-08 15:22:00,56.4,41.4,29.55,SW,225,8.5,8.5,57,0.00,,,0.00,VWS V14.00,2013-02-08 13:22:00,
2013-02-08 15:24:00,56.4,41.8,29.55,SSW,202,4.4,8.5,58,0.00,,,0.00,VWS V14.00,2013-02-08 13:24:00,
2013-02-08 15:25:00,56.4,41.8,29.55,SW,225,10.7,10.7,58,0.00,,,0.00,VWS V14.00,2013-02-08 13:25:00,
2013-02-08 15:26:00,56.4,41.4,29.55,SW,225,10.7,10.7,57,0.00,,,0.00,VWS V14.00,2013-02-08 13:26:00,
2013-02-08 15:27:00,56.4,41.4,29.55,SW,225,10.7,10.7,57,0.00,,,0.00,VWS V14.00,2013-02-08 13:27:00,
2013-02-08 15:29:00,56.4,41.4,29.55,WSW,248,4.6,10.7,57,0.00,,,0.00,VWS V14.00,2013-02-08 13:29:00,
2013-02-08 15:30:00,56.4,41.4,29.55,SSW,202,0.0,0.0,57,0.00,,,0.00,VWS V14.00,2013-02-08 13:30:00,
2013-02-08 15:31:00,56.4,41.4,29.55,SSW,202,0.0,0.0,57,0.00,,,0.00,VWS V14.00,2013-02-08 13:31:00,
2013-02-08 15:32:00,56.4,41.4,29.55,SSW,202,0.0,0.0,57,0.00,,,0.00,VWS V14.00,2013-02-08 13:32:00,
2013-02-08 15:34:00,56.4,41.4,29.55,SSE,158,2.9,4.2,57,0.00,,,0.00,VWS V14.00,2013-02-08 13:34:00,
2013-02-08 15:35:00,56.4,41.4,29.55,SSE,158,2.9,2.9,57,0.00,,,0.00,VWS V14.00,2013-02-08 13:35:00,
2013-02-08 15:36:00,56.3,41.3,29.55,SW,225,8.2,8.2,57,0.00,,,0.00,VWS V14.00,2013-02-08 13:36:00,
2013-02-08 15:37:00,56.3,41.3,29.55,SW,225,8.2,8.2,57,0.00,,,0.00,VWS V14.00,2013-02-08 13:37:00,
2013-02-08 15:39:00,56.3,41.3,29.55,WSW,248,12.7,12.7,57,0.00,,,0.00,VWS V14.00,2013-02-08 13:39:00,
2013-02-08 15:40:00,55.9,40.9,29.55,SW,225,6.9,6.9,57,0.00,,,0.00,VWS V14.00,2013-02-08 13:40:00,
2013-02-08 15:41:00,55.9,40.9,29.55,SW,225,6.9,6.9,57,0.00,,,0.00,VWS V14.00,2013-02-08 13:41:00,
2013-02-08 15:42:00,55.9,40.9,29.55,SW,225,6.9,6.9,57,0.00,,,0.00,VWS V14.00,2013-02-08 13:42:00,
2013-02-08 15:44:00,55.9,40.9,29.55,West,270,5.3,6.9,57,0.00,,,0.00,VWS V14.00,2013-02-08 13:44:00,
2013-02-08 15:46:00,55.7,40.7,29.55,SSW,202,5.8,5.8,57,0.00,,,0.00,VWS V14.00,2013-02-08 13:46:00,
2013-02-08 15:47:00,55.7,41.2,29.55,SW,225,6.7,6.7,58,0.00,,,0.00,VWS V14.00,2013-02-08 13:47:00,
2013-02-08 15:50:00,55.5,41.0,29.55,South,180,4.2,6.7,58,0.00,,,0.00,VWS V14.00,2013-02-08 13:50:00,
2013-02-08 15:51:00,55.5,41.0,29.55,South,180,4.2,4.2,58,0.00,,,0.00,VWS V14.00,2013-02-08 13:51:00,
2013-02-08 15:52:00,55.5,41.0,29.55,West,270,9.1,9.1,58,0.00,,,0.00,VWS V14.00,2013-02-08 13:52:00,
2013-02-08 15:55:00,55.5,41.0,29.55,SW,225,4.4,9.1,58,0.00,,,0.00,VWS V14.00,2013-02-08 13:55:00,
2013-02-08 15:56:00,55.5,41.0,29.55,WSW,248,3.8,3.8,58,0.00,,,0.00,VWS V14.00,2013-02-08 13:56:00,
2013-02-08 15:57:00,55.5,41.4,29.56,WSW,248,3.8,3.8,59,0.00,,,0.00,VWS V14.00,2013-02-08 13:57:00,
2013-02-08 16:00:00,55.4,40.9,29.56,SSW,202,7.1,7.1,58,0.00,,,0.00,VWS V14.00,2013-02-08 14:00:00,
2013-02-08 16:01:00,55.5,41.4,29.56,SSW,202,4.0,4.0,59,0.00,,,0.00,VWS V14.00,2013-02-08 14:01:00,
2013-02-08 16:02:00,55.4,41.3,29.56,SW,225,6.4,6.4,59,0.00,,,0.00,VWS V14.00,2013-02-08 14:02:00,
2013-02-08 16:05:00,55.4,41.3,29.56,WSW,248,6.4,6.4,59,0.00,,,0.00,VWS V14.00,2013-02-08 14:05:00,
2013-02-08 16:06:00,55.4,41.3,29.56,WSW,248,6.4,6.4,59,0.00,,,0.00,VWS V14.00,2013-02-08 14:06:00,
2013-02-08 16:07:00,55.5,41.9,29.56,South,180,0.0,6.4,60,0.00,,,0.00,VWS V14.00,2013-02-08 14:07:00,
2013-02-08 16:10:00,55.5,41.9,29.56,SSW,202,2.9,6.4,60,0.00,,,0.00,VWS V14.00,2013-02-08 14:10:00,
2013-02-08 16:11:00,55.7,42.0,29.57,SSW,202,6.0,6.0,60,0.00,,,0.00,VWS V14.00,2013-02-08 14:11:00,
2013-02-08 16:12:00,55.7,42.0,29.57,SSW,202,6.0,6.0,60,0.00,,,0.00,VWS V14.00,2013-02-08 14:12:00,
2013-02-08 16:15:00,55.9,42.2,29.57,WNW,292,2.0,6.0,60,0.00,,,0.00,VWS V14.00,2013-02-08 14:15:00,
2013-02-08 16:16:00,55.7,42.0,29.57,SW,225,3.5,3.5,60,0.00,,,0.00,VWS V14.00,2013-02-08 14:16:00,
2013-02-08 16:17:00,55.5,42.3,29.57,SW,225,8.2,8.2,61,0.00,,,0.00,VWS V14.00,2013-02-08 14:17:00,
2013-02-08 16:20:00,55.5,42.3,29.57,WNW,292,0.0,8.2,61,0.00,,,0.00,VWS V14.00,2013-02-08 14:20:00,
2013-02-08 16:21:00,55.5,42.3,29.56,SSW,202,4.2,4.2,61,0.00,,,0.00,VWS V14.00,2013-02-08 14:21:00,
2013-02-08 16:22:00,55.5,42.3,29.57,SSW,202,4.2,4.2,61,0.00,,,0.00,VWS V14.00,2013-02-08 14:22:00,
2013-02-08 16:25:00,55.2,42.0,29.57,WSW,248,1.3,4.2,61,0.00,,,0.00,VWS V14.00,2013-02-08 14:25:00,
2013-02-08 16:26:00,55.2,42.4,29.57,WSW,248,1.7,1.7,62,0.00,,,0.00,VWS V14.00,2013-02-08 14:26:00,
2013-02-08 16:27:00,55.2,42.4,29.57,WSW,248,1.7,1.7,62,0.00,,,0.00,VWS V14.00,2013-02-08 14:27:00,
2013-02-08 16:30:00,55.2,42.4,29.57,West,270,3.8,3.8,62,0.00,,,0.00,VWS V14.00,2013-02-08 14:30:00,
2013-02-08 16:31:00,55.0,42.2,29.57,WSW,248,3.3,3.3,62,0.00,,,0.00,VWS V14.00,2013-02-08 14:31:00,
2013-02-08 16:32:00,55.0,42.2,29.57,WSW,248,3.3,3.3,62,0.00,,,0.00,VWS V14.00,2013-02-08 14:32:00,
2013-02-08 16:35:00,54.8,42.0,29.57,SSW,202,5.1,6.2,62,0.00,,,0.00,VWS V14.00,2013-02-08 14:35:00,
2013-02-08 16:36:00,54.8,42.0,29.57,WSW,248,2.9,5.1,62,0.00,,,0.00,VWS V14.00,2013-02-08 14:36:00,
2013-02-08 16:37:00,54.8,42.0,29.57,WSW,248,2.9,5.1,62,0.00,,,0.00,VWS V14.00,2013-02-08 14:37:00,
2013-02-08 16:40:00,55.0,42.2,29.57,West,270,2.4,5.1,62,0.00,,,0.00,VWS V14.00,2013-02-08 14:40:00,
2013-02-08 16:41:00,54.8,41.6,29.57,SSW,202,4.6,4.6,61,0.00,,,0.00,VWS V14.00,2013-02-08 14:41:00,
2013-02-08 16:42:00,54.8,41.6,29.57,SSW,202,4.6,4.6,61,0.00,,,0.00,VWS V14.00,2013-02-08 14:42:00,
2013-02-08 16:45:00,55.0,41.8,29.57,SW,225,9.3,9.3,61,0.00,,,0.00,VWS V14.00,2013-02-08 14:45:00,
2013-02-08 16:46:00,54.8,41.6,29.57,WSW,248,5.8,5.8,61,0.00,,,0.00,VWS V14.00,2013-02-08 14:46:00,
2013-02-08 16:47:00,54.6,41.4,29.57,NNW,338,1.3,5.8,61,0.00,,,0.00,VWS V14.00,2013-02-08 14:47:00,
2013-02-08 16:50:00,54.6,41.4,29.57,SSW,202,1.5,5.8,61,0.00,,,0.00,VWS V14.00,2013-02-08 14:50:00,
2013-02-08 16:51:00,54.5,41.3,29.57,SW,225,3.8,3.8,61,0.00,,,0.00,VWS V14.00,2013-02-08 14:51:00,
2013-02-08 16:52:00,54.5,41.3,29.57,SW,225,3.8,3.8,61,0.00,,,0.00,VWS V14.00,2013-02-08 14:52:00,
2013-02-08 16:53:00,54.5,41.3,29.57,SW,225,3.8,3.8,61,0.00,,,0.00,VWS V14.00,2013-02-08 14:53:00,
2013-02-08 16:55:00,54.3,41.2,29.57,WSW,248,4.0,4.0,61,0.00,,,0.00,VWS V14.00,2013-02-08 14:55:00,
2013-02-08 16:56:00,54.3,41.2,29.57,WSW,248,4.0,4.0,61,0.00,,,0.00,VWS V14.00,2013-02-08 14:56:00,
2013-02-08 16:57:00,54.3,41.2,29.57,WSW,248,4.0,4.0,61,0.00,,,0.00,VWS V14.00,2013-02-08 14:57:00,
2013-02-08 16:58:00,54.3,41.2,29.57,WSW,248,4.0,4.0,61,0.00,,,0.00,VWS V14.00,2013-02-08 14:58:00,
2013-02-08 17:00:00,54.3,41.6,29.57,WSW,248,4.0,4.0,62,0.00,,,0.00,VWS V14.00,2013-02-08 15:00:00,
2013-02-08 17:01:00,54.3,41.6,29.57,WSW,248,4.0,4.0,62,0.00,,,0.00,VWS V14.00,2013-02-08 15:01:00,
2013-02-08 17:02:00,54.3,41.6,29.57,SSW,202,5.8,5.8,62,0.00,,,0.00,VWS V14.00,2013-02-08 15:02:00,
2013-02-08 17:03:00,54.3,41.6,29.57,SSW,202,5.8,5.8,62,0.00,,,0.00,VWS V14.00,2013-02-08 15:03:00,
2013-02-08 17:05:00,54.1,41.0,29.57,SW,225,6.4,6.4,61,0.00,,,0.00,VWS V14.00,2013-02-08 15:05:00,
2013-02-08 17:06:00,54.1,41.0,29.57,SW,225,4.0,6.4,61,0.00,,,0.00,VWS V14.00,2013-02-08 15:06:00,
2013-02-08 17:07:00,54.1,41.0,29.57,SW,225,4.0,6.4,61,0.00,,,0.00,VWS V14.00,2013-02-08 15:07:00,
2013-02-08 17:08:00,54.1,41.0,29.57,SW,225,4.0,6.4,61,0.00,,,0.00,VWS V14.00,2013-02-08 15:08:00,
2013-02-08 17:10:00,54.1,41.0,29.57,SSW,202,5.8,5.8,61,0.00,,,0.00,VWS V14.00,2013-02-08 15:10:00,
2013-02-08 17:11:00,54.1,41.0,29.57,SSW,202,5.8,5.8,61,0.00,,,0.00,VWS V14.00,2013-02-08 15:11:00,
2013-02-08 17:12:00,54.1,41.0,29.57,SSW,202,5.8,5.8,61,0.00,,,0.00,VWS V14.00,2013-02-08 15:12:00,
2013-02-08 17:13:00,54.1,41.0,29.57,WNW,292,3.3,5.8,61,0.00,,,0.00,VWS V14.00,2013-02-08 15:13:00,
2013-02-08 17:15:00,54.1,41.0,29.57,WSW,248,3.8,3.8,61,0.00,,,0.00,VWS V14.00,2013-02-08 15:15:00,
2013-02-08 17:16:00,54.1,41.0,29.57,WSW,248,3.8,3.8,61,0.00,,,0.00,VWS V14.00,2013-02-08 15:16:00,
2013-02-08 17:17:00,54.1,41.0,29.57,SW,225,6.4,6.4,61,0.00,,,0.00,VWS V14.00,2013-02-08 15:17:00,
2013-02-08 17:18:00,54.1,41.0,29.57,SW,225,6.4,6.4,61,0.00,,,0.00,VWS V14.00,2013-02-08 15:18:00,
2013-02-08 17:20:00,54.1,41.0,29.57,West,270,1.1,1.1,61,0.00,,,0.00,VWS V14.00,2013-02-08 15:20:00,
2013-02-08 17:21:00,54.1,41.0,29.57,WSW,248,4.4,4.4,61,0.00,,,0.00,VWS V14.00,2013-02-08 15:21:00,
2013-02-08 17:22:00,54.1,41.0,29.57,WSW,248,4.4,4.4,61,0.00,,,0.00,VWS V14.00,2013-02-08 15:22:00,
2013-02-08 17:23:00,54.1,40.5,29.57,SW,225,6.0,6.0,60,0.00,,,0.00,VWS V14.00,2013-02-08 15:23:00,
2013-02-08 17:25:00,54.1,40.5,29.57,SW,225,3.1,3.1,60,0.00,,,0.00,VWS V14.00,2013-02-08 15:25:00,
2013-02-08 17:26:00,53.9,40.3,29.57,SW,225,3.1,3.1,60,0.00,,,0.00,VWS V14.00,2013-02-08 15:26:00,
2013-02-08 17:27:00,53.9,40.3,29.57,SW,225,3.8,3.8,60,0.00,,,0.00,VWS V14.00,2013-02-08 15:27:00,
2013-02-08 17:28:00,53.9,40.3,29.58,SW,225,3.8,3.8,60,0.00,,,0.00,VWS V14.00,2013-02-08 15:28:00,
2013-02-08 17:30:00,53.9,40.8,29.58,SSE,158,2.4,2.4,61,0.00,,,0.00,VWS V14.00,2013-02-08 15:30:00,
2013-02-08 17:31:00,53.9,40.8,29.58,SSE,158,2.4,2.4,61,0.00,,,0.00,VWS V14.00,2013-02-08 15:31:00,
2013-02-08 17:32:00,53.9,40.8,29.57,South,180,4.9,4.9,61,0.00,,,0.00,VWS V14.00,2013-02-08 15:32:00,
2013-02-08 17:33:00,53.9,40.8,29.58,South,180,4.9,4.9,61,0.00,,,0.00,VWS V14.00,2013-02-08 15:33:00,
2013-02-08 17:36:00,53.7,40.6,29.58,WSW,248,1.5,1.5,61,0.00,,,0.00,VWS V14.00,2013-02-08 15:36:00,
2013-02-08 17:37:00,53.7,40.6,29.58,West,270,7.6,7.6,61,0.00,,,0.00,VWS V14.00,2013-02-08 15:37:00,
2013-02-08 17:38:00,53.7,40.6,29.58,WSW,248,1.3,7.6,61,0.00,,,0.00,VWS V14.00,2013-02-08 15:38:00,
2013-02-08 17:41:00,53.7,40.6,29.58,SSW,202,1.5,1.5,61,0.00,,,0.00,VWS V14.00,2013-02-08 15:41:00,
2013-02-08 17:42:00,53.7,40.6,29.59,SSW,202,1.5,1.5,61,0.00,,,0.00,VWS V14.00,2013-02-08 15:42:00,
2013-02-08 17:43:00,53.7,40.6,29.59,WSW,248,0.6,1.5,61,0.00,,,0.00,VWS V14.00,2013-02-08 15:43:00,
2013-02-08 17:46:00,53.7,40.6,29.59,SSW,202,1.7,1.7,61,0.00,,,0.00,VWS V14.00,2013-02-08 15:46:00,
2013-02-08 17:47:00,53.7,40.6,29.59,SSW,202,1.7,1.7,61,0.00,,,0.00,VWS V14.00,2013-02-08 15:47:00,
2013-02-08 17:48:00,53.7,40.6,29.59,SW,225,3.5,3.5,61,0.00,,,0.00,VWS V14.00,2013-02-08 15:48:00,
2013-02-08 17:51:00,53.4,40.7,29.59,WSW,248,3.1,3.1,62,0.00,,,0.00,VWS V14.00,2013-02-08 15:51:00,
2013-02-08 17:52:00,53.4,40.7,29.59,WSW,248,3.1,3.1,62,0.00,,,0.00,VWS V14.00,2013-02-08 15:52:00,
2013-02-08 17:53:00,53.4,40.7,29.59,WSW,248,3.1,3.1,62,0.00,,,0.00,VWS V14.00,2013-02-08 15:53:00,
2013-02-08 17:56:00,53.4,40.7,29.60,West,270,0.8,0.8,62,0.00,,,0.00,VWS V14.00,2013-02-08 15:56:00,
2013-02-08 17:57:00,53.4,40.7,29.60,West,270,0.8,0.8,62,0.00,,,0.00,VWS V14.00,2013-02-08 15:57:00,
2013-02-08 17:58:00,53.4,40.7,29.60,SSW,202,3.8,3.8,62,0.00,,,0.00,VWS V14.00,2013-02-08 15:58:00,
2013-02-08 18:01:00,53.2,40.5,29.60,SSW,202,4.4,4.4,62,0.00,,,0.00,VWS V14.00,2013-02-08 16:01:00,
2013-02-08 18:02:00,53.2,40.5,29.60,SSW,202,4.4,4.4,62,0.00,,,0.00,VWS V14.00,2013-02-08 16:02:00,
2013-02-08 18:03:00,53.2,40.5,29.60,South,180,0.8,4.4,62,0.00,,,0.00,VWS V14.00,2013-02-08 16:03:00,
2013-02-08 18:06:00,52.8,40.6,29.60,SW,225,3.1,3.1,63,0.00,,,0.00,VWS V14.00,2013-02-08 16:06:00,
2013-02-08 18:07:00,52.8,40.6,29.60,SW,225,3.1,3.1,63,0.00,,,0.00,VWS V14.00,2013-02-08 16:07:00,
2013-02-08 18:08:00,52.8,40.6,29.60,West,270,2.0,3.1,63,0.00,,,0.00,VWS V14.00,2013-02-08 16:08:00,
2013-02-08 18:11:00,52.8,40.6,29.60,SSE,158,0.0,0.0,63,0.00,,,0.00,VWS V14.00,2013-02-08 16:11:00,
2013-02-08 18:12:00,52.8,40.6,29.60,SSE,158,0.0,0.0,63,0.00,,,0.00,VWS V14.00,2013-02-08 16:12:00,
2013-02-08 18:13:00,52.7,40.5,29.60,SW,225,3.8,3.8,63,0.00,,,0.00,VWS V14.00,2013-02-08 16:13:00,
2013-02-08 18:14:00,52.7,40.5,29.60,SW,225,3.8,3.8,63,0.00,,,0.00,VWS V14.00,2013-02-08 16:14:00,
2013-02-08 18:16:00,52.7,40.5,29.60,WSW,248,3.5,3.5,63,0.00,,,0.00,VWS V14.00,2013-02-08 16:16:00,
2013-02-08 18:17:00,52.7,40.5,29.60,WSW,248,3.5,3.5,63,0.00,,,0.00,VWS V14.00,2013-02-08 16:17:00,
2013-02-08 18:19:00,52.7,40.5,29.60,WSW,248,4.6,4.6,63,0.00,,,0.00,VWS V14.00,2013-02-08 16:19:00,
2013-02-08 18:21:00,52.5,40.7,29.60,WSW,248,1.1,3.5,64,0.00,,,0.00,VWS V14.00,2013-02-08 16:21:00,
2013-02-08 18:22:00,52.5,40.7,29.60,WSW,248,1.1,3.5,64,0.00,,,0.00,VWS V14.00,2013-02-08 16:22:00,
2013-02-08 18:24:00,52.5,40.7,29.60,SSW,202,2.0,3.5,64,0.00,,,0.00,VWS V14.00,2013-02-08 16:24:00,
2013-02-08 18:27:00,52.3,40.5,29.61,WSW,248,2.0,2.0,64,0.00,,,0.00,VWS V14.00,2013-02-08 16:27:00,
2013-02-08 18:29:00,52.3,40.5,29.61,SW,225,1.3,2.0,64,0.00,,,0.00,VWS V14.00,2013-02-08 16:29:00,
2013-02-08 18:32:00,52.3,40.5,29.61,West,270,2.2,2.2,64,0.00,,,0.00,VWS V14.00,2013-02-08 16:32:00,
2013-02-08 18:34:00,52.3,40.9,29.61,WSW,248,0.0,2.2,65,0.00,,,0.00,VWS V14.00,2013-02-08 16:34:00,
2013-02-08 18:37:00,52.1,40.7,29.61,SW,225,1.1,2.4,65,0.00,,,0.00,VWS V14.00,2013-02-08 16:37:00,
2013-02-08 18:39:00,52.1,40.7,29.61,SW,225,4.2,4.2,65,0.00,,,0.00,VWS V14.00,2013-02-08 16:39:00,
2013-02-08 18:42:00,52.1,41.1,29.61,SW,225,4.4,4.4,66,0.00,,,0.00,VWS V14.00,2013-02-08 16:42:00,
2013-02-08 18:44:00,51.9,40.9,29.62,SW,225,2.9,4.4,66,0.00,,,0.00,VWS V14.00,2013-02-08 16:44:00,
2013-02-08 18:47:00,51.9,40.9,29.62,SW,225,2.4,2.4,66,0.00,,,0.00,VWS V14.00,2013-02-08 16:47:00,
2013-02-08 18:49:00,51.8,40.8,29.62,SSW,202,1.3,2.4,66,0.00,,,0.00,VWS V14.00,2013-02-08 16:49:00,
2013-02-08 18:52:00,51.6,40.6,29.62,SSW,202,0.0,1.3,66,0.00,,,0.00,VWS V14.00,2013-02-08 16:52:00,
2013-02-08 18:54:00,51.6,40.6,29.62,WSW,248,3.5,3.5,66,0.00,,,0.00,VWS V14.00,2013-02-08 16:54:00,
2013-02-08 18:57:00,51.6,40.6,29.62,SW,225,0.0,0.0,66,0.00,,,0.00,VWS V14.00,2013-02-08 16:57:00,
2013-02-08 18:59:00,51.6,40.6,29.62,SW,225,1.3,1.3,66,0.00,,,0.00,VWS V14.00,2013-02-08 16:59:00,
2013-02-08 19:02:00,51.6,41.0,29.62,South,180,0.0,1.5,67,0.00,,,0.00,VWS V14.00,2013-02-08 17:02:00,
2013-02-08 19:04:00,51.6,41.0,29.62,SSW,202,3.3,3.3,67,0.00,,,0.00,VWS V14.00,2013-02-08 17:04:00,
2013-02-08 19:05:00,51.6,41.0,29.62,SSW,202,3.3,3.3,67,0.00,,,0.00,VWS V14.00,2013-02-08 17:05:00,
2013-02-08 19:07:00,51.4,40.8,29.62,WSW,248,3.1,3.3,67,0.00,,,0.00,VWS V14.00,2013-02-08 17:07:00,
2013-02-08 19:09:00,51.4,40.8,29.62,SW,225,3.1,3.3,67,0.00,,,0.00,VWS V14.00,2013-02-08 17:09:00,
2013-02-08 19:10:00,51.4,40.8,29.62,SW,225,3.1,3.3,67,0.00,,,0.00,VWS V14.00,2013-02-08 17:10:00,
2013-02-08 19:12:00,51.4,40.8,29.62,SSW,202,1.1,2.4,67,0.00,,,0.00,VWS V14.00,2013-02-08 17:12:00,
2013-02-08 19:13:00,51.4,40.8,29.62,SSW,202,1.1,2.4,67,0.00,,,0.00,VWS V14.00,2013-02-08 17:13:00,
2013-02-08 19:14:00,51.4,40.8,29.62,SSW,202,1.1,2.4,67,0.00,,,0.00,VWS V14.00,2013-02-08 17:14:00,
2013-02-08 19:15:00,51.4,40.8,29.62,SSW,202,1.1,2.4,67,0.00,,,0.00,VWS V14.00,2013-02-08 17:15:00,
2013-02-08 19:18:00,51.4,40.8,29.62,SSW,202,1.7,4.9,67,0.00,,,0.00,VWS V14.00,2013-02-08 17:18:00,
2013-02-08 19:20:00,51.4,40.8,29.63,SW,225,3.1,4.9,67,0.00,,,0.00,VWS V14.00,2013-02-08 17:20:00,
2013-02-08 19:23:00,51.4,41.2,29.63,SW,225,1.1,4.4,68,0.00,,,0.00,VWS V14.00,2013-02-08 17:23:00,
2013-02-08 19:25:00,51.4,41.2,29.63,SW,225,1.1,4.4,68,0.00,,,0.00,VWS V14.00,2013-02-08 17:25:00,
2013-02-08 19:28:00,51.4,41.2,29.63,SW,225,0.6,4.6,68,0.00,,,0.00,VWS V14.00,2013-02-08 17:28:00,
2013-02-08 19:30:00,51.4,41.2,29.63,NNW,338,0.0,4.6,68,0.00,,,0.00,VWS V14.00,2013-02-08 17:30:00,
2013-02-08 19:33:00,51.4,41.2,29.63,SSW,202,0.0,2.2,68,0.00,,,0.00,VWS V14.00,2013-02-08 17:33:00,
2013-02-08 19:35:00,51.4,41.2,29.63,SSW,202,0.0,0.0,68,0.00,,,0.00,VWS V14.00,2013-02-08 17:35:00,
2013-02-08 19:38:00,51.4,41.6,29.63,WSW,248,2.0,6.2,69,0.00,,,0.00,VWS V14.00,2013-02-08 17:38:00,
2013-02-08 19:40:00,51.4,41.6,29.63,SSW,202,3.8,3.8,69,0.00,,,0.00,VWS V14.00,2013-02-08 17:40:00,
2013-02-08 19:43:00,51.4,41.6,29.63,South,180,2.0,3.8,69,0.00,,,0.00,VWS V14.00,2013-02-08 17:43:00,
2013-02-08 19:45:00,51.4,41.6,29.63,WSW,248,2.2,2.2,69,0.00,,,0.00,VWS V14.00,2013-02-08 17:45:00,
2013-02-08 19:48:00,51.4,41.6,29.64,WSW,248,2.9,2.9,69,0.00,,,0.00,VWS V14.00,2013-02-08 17:48:00,
2013-02-08 19:49:00,51.4,41.6,29.64,WSW,248,2.9,2.9,69,0.00,,,0.00,VWS V14.00,2013-02-08 17:49:00,
2013-02-08 19:50:00,51.2,41.4,29.64,SW,225,1.5,1.5,69,0.00,,,0.00,VWS V14.00,2013-02-08 17:50:00,
2013-02-08 19:51:00,51.2,41.4,29.64,SW,225,1.5,1.5,69,0.00,,,0.00,VWS V14.00,2013-02-08 17:51:00,
2013-02-08 19:53:00,51.2,41.8,29.63,SW,225,1.5,1.5,70,0.00,,,0.00,VWS V14.00,2013-02-08 17:53:00,
2013-02-08 19:54:00,51.2,41.8,29.63,SW,225,1.5,1.5,70,0.00,,,0.00,VWS V14.00,2013-02-08 17:54:00,
2013-02-08 19:56:00,51.2,41.8,29.63,SW,225,1.3,1.3,70,0.00,,,0.00,VWS V14.00,2013-02-08 17:56:00,
2013-02-08 19:58:00,51.0,41.9,29.63,SW,225,0.0,1.3,71,0.00,,,0.00,VWS V14.00,2013-02-08 17:58:00,
2013-02-08 19:59:00,51.0,41.9,29.63,SW,225,0.0,1.3,71,0.00,,,0.00,VWS V14.00,2013-02-08 17:59:00,
2013-02-08 20:01:00,51.0,41.9,29.63,SSE,158,2.0,2.0,71,0.00,,,0.00,VWS V14.00,2013-02-08 18:01:00,
2013-02-08 20:03:00,50.9,41.8,29.64,South,180,1.3,2.0,71,0.00,,,0.00,VWS V14.00,2013-02-08 18:03:00,
2013-02-08 20:04:00,50.9,41.8,29.64,South,180,1.3,2.0,71,0.00,,,0.00,VWS V14.00,2013-02-08 18:04:00,
2013-02-08 20:06:00,50.9,41.8,29.64,NNW,338,0.0,0.0,71,0.00,,,0.00,VWS V14.00,2013-02-08 18:06:00,
2013-02-08 20:09:00,50.7,41.7,29.64,SSW,202,2.2,2.2,71,0.00,,,0.00,VWS V14.00,2013-02-08 18:09:00,
2013-02-08 20:11:00,50.7,41.7,29.64,NNW,338,0.0,0.0,71,0.00,,,0.00,VWS V14.00,2013-02-08 18:11:00,
2013-02-08 20:14:00,50.7,42.0,29.64,WSW,248,7.8,7.8,72,0.00,,,0.00,VWS V14.00,2013-02-08 18:14:00,
2013-02-08 20:16:00,50.7,42.0,29.64,WSW,248,4.0,4.0,72,0.00,,,0.00,VWS V14.00,2013-02-08 18:16:00,
2013-02-08 20:19:00,50.5,41.8,29.64,WSW,248,2.9,4.0,72,0.00,,,0.00,VWS V14.00,2013-02-08 18:19:00,
2013-02-08 20:21:00,50.5,41.8,29.64,SW,225,1.3,1.3,72,0.00,,,0.00,VWS V14.00,2013-02-08 18:21:00,
2013-02-08 20:24:00,50.3,41.6,29.64,WSW,248,1.7,5.3,72,0.00,,,0.00,VWS V14.00,2013-02-08 18:24:00,
2013-02-08 20:25:00,50.3,41.6,29.64,WSW,248,1.7,5.3,72,0.00,,,0.00,VWS V14.00,2013-02-08 18:25:00,
2013-02-08 20:26:00,50.3,41.6,29.65,SW,225,6.7,6.7,72,0.00,,,0.00,VWS V14.00,2013-02-08 18:26:00,
2013-02-08 20:30:00,50.3,42.0,29.65,WSW,248,2.4,6.7,73,0.00,,,0.00,VWS V14.00,2013-02-08 18:30:00,
2013-02-08 20:31:00,50.1,41.8,29.65,SW,225,3.1,3.1,73,0.00,,,0.00,VWS V14.00,2013-02-08 18:31:00,
2013-02-08 20:35:00,50.1,41.8,29.65,SSW,202,4.4,4.4,73,0.00,,,0.00,VWS V14.00,2013-02-08 18:35:00,
2013-02-08 20:36:00,50.1,41.8,29.65,WSW,248,2.6,2.6,73,0.00,,,0.00,VWS V14.00,2013-02-08 18:36:00,
2013-02-08 20:37:00,50.1,41.8,29.65,WSW,248,2.6,2.6,73,0.00,,,0.00,VWS V14.00,2013-02-08 18:37:00,
2013-02-08 20:38:00,50.1,41.8,29.65,WSW,248,7.6,7.6,73,0.00,,,0.00,VWS V14.00,2013-02-08 18:38:00,
2013-02-08 20:40:00,50.0,41.7,29.65,WSW,248,2.2,7.6,73,0.00,,,0.00,VWS V14.00,2013-02-08 18:40:00,
2013-02-08 20:41:00,49.8,41.5,29.65,SW,225,0.0,2.2,73,0.00,,,0.00,VWS V14.00,2013-02-08 18:41:00,
2013-02-08 20:42:00,49.8,41.5,29.65,SW,225,0.0,2.2,73,0.00,,,0.00,VWS V14.00,2013-02-08 18:42:00,
2013-02-08 20:43:00,49.8,41.5,29.65,WSW,248,2.6,2.6,73,0.00,,,0.00,VWS V14.00,2013-02-08 18:43:00,
2013-02-08 20:45:00,49.8,41.5,29.65,WSW,248,2.6,2.6,73,0.00,,,0.00,VWS V14.00,2013-02-08 18:45:00,
2013-02-08 20:46:00,49.8,41.5,29.65,WSW,248,0.0,0.0,73,0.00,,,0.00,VWS V14.00,2013-02-08 18:46:00,
2013-02-08 20:47:00,49.8,41.5,29.65,WSW,248,0.0,0.0,73,0.00,,,0.00,VWS V14.00,2013-02-08 18:47:00,
2013-02-08 20:49:00,49.8,41.5,29.65,WSW,248,4.0,4.0,73,0.00,,,0.00,VWS V14.00,2013-02-08 18:49:00,
2013-02-08 20:50:00,49.8,41.5,29.65,WSW,248,4.0,4.0,73,0.00,,,0.00,VWS V14.00,2013-02-08 18:50:00,
2013-02-08 20:51:00,49.8,41.5,29.65,SW,225,2.4,2.4,73,0.00,,,0.00,VWS V14.00,2013-02-08 18:51:00,
2013-02-08 20:52:00,49.8,41.5,29.65,SSW,202,0.0,2.4,73,0.00,,,0.00,VWS V14.00,2013-02-08 18:52:00,
2013-02-08 20:54:00,49.6,41.7,29.65,SW,225,4.6,4.6,74,0.00,,,0.00,VWS V14.00,2013-02-08 18:54:00,
2013-02-08 20:55:00,49.6,41.7,29.65,SW,225,4.6,4.6,74,0.00,,,0.00,VWS V14.00,2013-02-08 18:55:00,
2013-02-08 20:56:00,49.6,41.7,29.65,WSW,248,2.4,4.6,74,0.00,,,0.00,VWS V14.00,2013-02-08 18:56:00,
2013-02-08 20:57:00,49.6,41.7,29.65,WSW,248,2.4,4.6,74,0.00,,,0.00,VWS V14.00,2013-02-08 18:57:00,
2013-02-08 20:59:00,49.6,41.7,29.66,SW,225,3.1,4.6,74,0.00,,,0.00,VWS V14.00,2013-02-08 18:59:00,
2013-02-08 21:00:00,49.6,41.7,29.65,SW,225,4.0,4.0,74,0.00,,,0.00,VWS V14.00,2013-02-08 19:00:00,
2013-02-08 21:01:00,49.6,41.7,29.66,SW,225,4.0,4.0,74,0.00,,,0.00,VWS V14.00,2013-02-08 19:01:00,
2013-02-08 21:02:00,49.6,41.7,29.65,SW,225,4.0,4.0,74,0.00,,,0.00,VWS V14.00,2013-02-08 19:02:00,
2013-02-08 21:04:00,49.6,41.7,29.66,SW,225,2.4,4.0,74,0.00,,,0.00,VWS V14.00,2013-02-08 19:04:00,
2013-02-08 21:05:00,49.6,41.7,29.65,WSW,248,5.8,5.8,74,0.00,,,0.00,VWS V14.00,2013-02-08 19:05:00,
2013-02-08 21:06:00,49.6,41.7,29.65,WSW,248,5.8,5.8,74,0.00,,,0.00,VWS V14.00,2013-02-08 19:06:00,
2013-02-08 21:07:00,49.6,41.7,29.65,WSW,248,4.2,5.8,74,0.00,,,0.00,VWS V14.00,2013-02-08 19:07:00,
2013-02-08 21:09:00,49.6,41.7,29.66,SW,225,4.9,5.8,74,0.00,,,0.00,VWS V14.00,2013-02-08 19:09:00,
2013-02-08 21:10:00,49.6,41.7,29.66,SW,225,4.9,4.9,74,0.00,,,0.00,VWS V14.00,2013-02-08 19:10:00,
2013-02-08 21:11:00,49.4,41.1,29.66,SSW,202,2.2,4.9,73,0.00,,,0.00,VWS V14.00,2013-02-08 19:11:00,
2013-02-08 21:12:00,49.4,41.1,29.66,SSW,202,2.2,4.9,73,0.00,,,0.00,VWS V14.00,2013-02-08 19:12:00,
2013-02-08 21:14:00,49.2,40.9,29.66,WSW,248,0.0,4.9,73,0.00,,,0.00,VWS V14.00,2013-02-08 19:14:00,
2013-02-08 21:15:00,49.2,40.9,29.66,SW,225,2.0,2.0,73,0.00,,,0.00,VWS V14.00,2013-02-08 19:15:00,
2013-02-08 21:17:00,49.2,40.9,29.66,SW,225,2.0,2.0,73,0.00,,,0.00,VWS V14.00,2013-02-08 19:17:00,
2013-02-08 21:19:00,49.2,40.9,29.66,WSW,248,0.0,2.0,73,0.00,,,0.00,VWS V14.00,2013-02-08 19:19:00,
2013-02-08 21:20:00,49.2,41.3,29.66,WSW,248,4.4,4.4,74,0.00,,,0.00,VWS V14.00,2013-02-08 19:20:00,
2013-02-08 21:22:00,49.2,41.3,29.66,SW,225,0.0,4.4,74,0.00,,,0.00,VWS V14.00,2013-02-08 19:22:00,
2013-02-08 21:24:00,49.2,41.3,29.66,SW,225,2.9,4.4,74,0.00,,,0.00,VWS V14.00,2013-02-08 19:24:00,
2013-02-08 21:26:00,49.2,41.3,29.66,SW,225,2.9,2.9,74,0.00,,,0.00,VWS V14.00,2013-02-08 19:26:00,
2013-02-08 21:27:00,49.1,41.2,29.67,SW,225,2.9,2.9,74,0.00,,,0.00,VWS V14.00,2013-02-08 19:27:00,
2013-02-08 21:29:00,49.1,41.2,29.67,South,180,1.1,2.9,74,0.00,,,0.00,VWS V14.00,2013-02-08 19:29:00,
2013-02-08 21:31:00,49.1,41.2,29.67,WSW,248,2.0,2.0,74,0.00,,,0.00,VWS V14.00,2013-02-08 19:31:00,
2013-02-08 21:32:00,49.1,41.2,29.67,SW,225,2.0,2.0,74,0.00,,,0.00,VWS V14.00,2013-02-08 19:32:00,
2013-02-08 21:34:00,49.1,41.2,29.67,SW,225,2.0,2.0,74,0.00,,,0.00,VWS V14.00,2013-02-08 19:34:00,
2013-02-08 21:36:00,49.1,41.2,29.67,SW,225,2.9,2.9,74,0.00,,,0.00,VWS V14.00,2013-02-08 19:36:00,
2013-02-08 21:37:00,49.1,41.2,29.67,SW,225,6.2,6.2,74,0.00,,,0.00,VWS V14.00,2013-02-08 19:37:00,
2013-02-08 21:38:00,49.1,41.2,29.67,SW,225,6.2,6.2,74,0.00,,,0.00,VWS V14.00,2013-02-08 19:38:00,
2013-02-08 21:39:00,48.9,41.0,29.67,WSW,248,0.0,6.2,74,0.00,,,0.00,VWS V14.00,2013-02-08 19:39:00,
2013-02-08 21:41:00,48.9,41.0,29.67,WSW,248,0.0,0.0,74,0.00,,,0.00,VWS V14.00,2013-02-08 19:41:00,
2013-02-08 21:42:00,48.9,41.0,29.67,South,180,2.9,2.9,74,0.00,,,0.00,VWS V14.00,2013-02-08 19:42:00,
2013-02-08 21:43:00,48.9,41.0,29.67,SSW,202,3.8,3.8,74,0.00,,,0.00,VWS V14.00,2013-02-08 19:43:00,
2013-02-08 21:44:00,48.9,41.0,29.67,SSW,202,3.8,3.8,74,0.00,,,0.00,VWS V14.00,2013-02-08 19:44:00,
2013-02-08 21:46:00,48.9,41.0,29.67,SSE,158,0.0,0.0,74,0.00,,,0.00,VWS V14.00,2013-02-08 19:46:00,
2013-02-08 21:47:00,48.9,41.0,29.67,SSE,158,0.0,0.0,74,0.00,,,0.00,VWS V14.00,2013-02-08 19:47:00,
2013-02-08 21:48:00,48.9,41.0,29.68,SSE,158,0.0,0.0,74,0.00,,,0.00,VWS V14.00,2013-02-08 19:48:00,
2013-02-08 21:49:00,48.9,41.0,29.67,SSE,158,0.0,0.0,74,0.00,,,0.00,VWS V14.00,2013-02-08 19:49:00,
2013-02-08 21:51:00,48.9,41.0,29.67,SW,225,2.6,2.6,74,0.00,,,0.00,VWS V14.00,2013-02-08 19:51:00,
2013-02-08 21:52:00,48.7,40.8,29.67,West,270,9.1,9.1,74,0.00,,,0.00,VWS V14.00,2013-02-08 19:52:00,
2013-02-08 21:53:00,48.7,40.8,29.67,West,270,9.1,9.1,74,0.00,,,0.00,VWS V14.00,2013-02-08 19:53:00,
2013-02-08 21:55:00,48.7,40.8,29.67,WSW,248,2.0,9.1,74,0.00,,,0.00,VWS V14.00,2013-02-08 19:55:00,
2013-02-08 21:56:00,48.7,40.8,29.67,SW,225,3.1,3.1,74,0.00,,,0.00,VWS V14.00,2013-02-08 19:56:00,
2013-02-08 21:58:00,48.7,40.8,29.68,SW,225,3.1,3.1,74,0.00,,,0.00,VWS V14.00,2013-02-08 19:58:00,
2013-02-08 22:00:00,48.7,40.5,29.68,SE,135,0.0,0.0,73,0.00,,,0.00,VWS V14.00,2013-02-08 20:00:00,
2013-02-08 22:01:00,48.7,40.5,29.67,SE,135,0.0,0.0,73,0.00,,,0.00,VWS V14.00,2013-02-08 20:01:00,
2013-02-08 22:03:00,48.7,40.5,29.68,SE,135,0.0,0.0,73,0.00,,,0.00,VWS V14.00,2013-02-08 20:03:00,
2013-02-08 22:04:00,48.7,40.5,29.68,WNW,292,1.1,1.1,73,0.00,,,0.00,VWS V14.00,2013-02-08 20:04:00,
2013-02-08 22:05:00,48.5,40.2,29.68,WNW,292,0.0,0.0,73,0.00,,,0.00,VWS V14.00,2013-02-08 20:05:00,
2013-02-08 22:06:00,48.5,40.2,29.68,WNW,292,0.0,0.0,73,0.00,,,0.00,VWS V14.00,2013-02-08 20:06:00,
2013-02-08 22:08:00,48.5,40.2,29.68,SW,225,3.1,3.1,73,0.00,,,0.00,VWS V14.00,2013-02-08 20:08:00,
2013-02-08 22:09:00,48.5,40.2,29.68,SW,225,3.1,3.1,73,0.00,,,0.00,VWS V14.00,2013-02-08 20:09:00,
2013-02-08 22:10:00,48.5,40.2,29.68,SSE,158,1.3,1.3,73,0.00,,,0.00,VWS V14.00,2013-02-08 20:10:00,
2013-02-08 22:11:00,48.5,40.2,29.68,SSE,158,0.0,1.3,73,0.00,,,0.00,VWS V14.00,2013-02-08 20:11:00,
2013-02-08 22:13:00,48.5,40.2,29.69,WSW,248,2.2,2.2,73,0.00,,,0.00,VWS V14.00,2013-02-08 20:13:00,
2013-02-08 22:14:00,48.5,40.2,29.69,WSW,248,2.2,2.2,73,0.00,,,0.00,VWS V14.00,2013-02-08 20:14:00,
2013-02-08 22:15:00,48.3,40.1,29.69,West,270,0.0,0.0,73,0.00,,,0.00,VWS V14.00,2013-02-08 20:15:00,
2013-02-08 22:16:00,48.3,40.1,29.69,West,270,0.0,0.0,73,0.00,,,0.00,VWS V14.00,2013-02-08 20:16:00,
2013-02-08 22:18:00,48.3,40.1,29.69,SSE,158,0.0,0.0,73,0.00,,,0.00,VWS V14.00,2013-02-08 20:18:00,
2013-02-08 22:19:00,48.3,40.1,29.69,SSE,158,0.0,0.0,73,0.00,,,0.00,VWS V14.00,2013-02-08 20:19:00,
2013-02-08 22:20:00,48.3,40.1,29.69,SSW,202,0.0,0.0,73,0.00,,,0.00,VWS V14.00,2013-02-08 20:20:00,
2013-02-08 22:21:00,48.3,40.1,29.69,SSW,202,0.0,0.0,73,0.00,,,0.00,VWS V14.00,2013-02-08 20:21:00,
2013-02-08 22:23:00,48.3,40.1,29.69,SW,225,3.5,3.5,73,0.00,,,0.00,VWS V14.00,2013-02-08 20:23:00,
2013-02-08 22:24:00,48.3,40.1,29.69,SW,225,3.5,3.5,73,0.00,,,0.00,VWS V14.00,2013-02-08 20:24:00,
2013-02-08 22:25:00,48.3,40.1,29.69,SW,225,0.0,0.0,73,0.00,,,0.00,VWS V14.00,2013-02-08 20:25:00,
2013-02-08 22:26:00,48.3,40.1,29.69,SW,225,3.1,3.1,73,0.00,,,0.00,VWS V14.00,2013-02-08 20:26:00,
2013-02-08 22:28:00,48.3,40.1,29.69,SW,225,1.5,3.1,73,0.00,,,0.00,VWS V14.00,2013-02-08 20:28:00,
2013-02-08 22:29:00,48.3,40.1,29.69,SW,225,1.5,3.1,73,0.00,,,0.00,VWS V14.00,2013-02-08 20:29:00,
2013-02-08 22:31:00,48.3,40.1,29.69,WSW,248,1.3,1.3,73,0.00,,,0.00,VWS V14.00,2013-02-08 20:31:00,
2013-02-08 22:33:00,48.2,40.3,29.69,SSW,202,2.4,2.4,74,0.00,,,0.00,VWS V14.00,2013-02-08 20:33:00,
2013-02-08 22:34:00,48.2,40.3,29.69,SSW,202,2.4,2.4,74,0.00,,,0.00,VWS V14.00,2013-02-08 20:34:00,
2013-02-08 22:36:00,48.2,40.3,29.69,West,270,1.5,1.5,74,0.00,,,0.00,VWS V14.00,2013-02-08 20:36:00,
2013-02-08 22:38:00,48.2,40.3,29.69,SSW,202,4.0,4.0,74,0.00,,,0.00,VWS V14.00,2013-02-08 20:38:00,
2013-02-08 22:39:00,48.2,40.3,29.69,SW,225,0.8,4.0,74,0.00,,,0.00,VWS V14.00,2013-02-08 20:39:00,
2013-02-08 22:41:00,48.0,40.1,29.69,SSW,202,0.0,0.8,74,0.00,,,0.00,VWS V14.00,2013-02-08 20:41:00,
2013-02-08 22:42:00,48.0,40.1,29.69,SSW,202,0.0,0.8,74,0.00,,,0.00,VWS V14.00,2013-02-08 20:42:00,
2013-02-08 22:43:00,48.0,40.1,29.69,South,180,0.0,0.8,74,0.00,,,0.00,VWS V14.00,2013-02-08 20:43:00,
2013-02-08 22:44:00,48.0,40.1,29.69,South,180,0.0,0.8,74,0.00,,,0.00,VWS V14.00,2013-02-08 20:44:00,
2013-02-08 22:46:00,48.0,40.1,29.69,SW,225,0.0,0.0,74,0.00,,,0.00,VWS V14.00,2013-02-08 20:46:00,
2013-02-08 22:47:00,48.0,40.1,29.69,SW,225,0.0,0.0,74,0.00,,,0.00,VWS V14.00,2013-02-08 20:47:00,
2013-02-08 22:48:00,48.0,40.1,29.69,WSW,248,3.5,3.5,74,0.00,,,0.00,VWS V14.00,2013-02-08 20:48:00,
2013-02-08 22:49:00,48.0,40.1,29.69,WSW,248,3.5,3.5,74,0.00,,,0.00,VWS V14.00,2013-02-08 20:49:00,
2013-02-08 22:51:00,48.0,40.1,29.69,SW,225,0.0,0.0,74,0.00,,,0.00,VWS V14.00,2013-02-08 20:51:00,
2013-02-08 22:52:00,48.0,40.1,29.69,SW,225,0.0,0.0,74,0.00,,,0.00,VWS V14.00,2013-02-08 20:52:00,
2013-02-08 22:53:00,48.0,40.1,29.70,WSW,248,3.3,3.3,74,0.00,,,0.00,VWS V14.00,2013-02-08 20:53:00,
2013-02-08 22:54:00,48.0,40.1,29.70,West,270,2.2,3.3,74,0.00,,,0.00,VWS V14.00,2013-02-08 20:54:00,
2013-02-08 22:56:00,48.0,40.5,29.70,South,180,2.6,2.6,75,0.00,,,0.00,VWS V14.00,2013-02-08 20:56:00,
2013-02-08 22:57:00,48.0,40.5,29.70,South,180,2.6,2.6,75,0.00,,,0.00,VWS V14.00,2013-02-08 20:57:00,
2013-02-08 22:58:00,48.0,40.5,29.70,SW,225,0.0,2.6,75,0.00,,,0.00,VWS V14.00,2013-02-08 20:58:00,
2013-02-08 22:59:00,48.0,40.5,29.70,SW,225,0.0,2.6,75,0.00,,,0.00,VWS V14.00,2013-02-08 20:59:00,
2013-02-08 23:01:00,48.0,40.5,29.70,WSW,248,0.0,0.0,75,0.00,,,0.00,VWS V14.00,2013-02-08 21:01:00,
2013-02-08 23:02:00,48.0,40.5,29.70,WSW,248,0.0,0.0,75,0.00,,,0.00,VWS V14.00,2013-02-08 21:02:00,
2013-02-08 23:03:00,48.0,40.5,29.70,NW,315,0.0,0.0,75,0.00,,,0.00,VWS V14.00,2013-02-08 21:03:00,
2013-02-08 23:04:00,48.0,40.5,29.70,WNW,292,0.0,0.0,75,0.00,,,0.00,VWS V14.00,2013-02-08 21:04:00,
2013-02-08 23:06:00,48.0,40.5,29.70,WNW,292,0.0,0.0,75,0.00,,,0.00,VWS V14.00,2013-02-08 21:06:00,
2013-02-08 23:07:00,48.0,40.5,29.70,WNW,292,0.0,0.0,75,0.00,,,0.00,VWS V14.00,2013-02-08 21:07:00,
2013-02-08 23:08:00,48.0,40.5,29.70,NW,315,0.0,0.0,75,0.00,,,0.00,VWS V14.00,2013-02-08 21:08:00,
2013-02-08 23:09:00,48.0,40.5,29.70,SW,225,0.0,0.0,75,0.00,,,0.00,VWS V14.00,2013-02-08 21:09:00,
2013-02-08 23:11:00,47.8,40.3,29.70,West,270,0.0,0.0,75,0.00,,,0.00,VWS V14.00,2013-02-08 21:11:00,
2013-02-08 23:12:00,47.8,40.3,29.70,West,270,0.0,0.0,75,0.00,,,0.00,VWS V14.00,2013-02-08 21:12:00,
2013-02-08 23:13:00,47.8,40.3,29.71,WNW,292,0.0,0.0,75,0.00,,,0.00,VWS V14.00,2013-02-08 21:13:00,
2013-02-08 23:14:00,47.8,40.3,29.71,WNW,292,0.0,0.0,75,0.00,,,0.00,VWS V14.00,2013-02-08 21:14:00,
2013-02-08 23:16:00,47.8,40.3,29.70,WNW,292,0.0,0.0,75,0.00,,,0.00,VWS V14.00,2013-02-08 21:16:00,
2013-02-08 23:17:00,47.8,40.3,29.70,WNW,292,0.0,0.0,75,0.00,,,0.00,VWS V14.00,2013-02-08 21:17:00,
2013-02-08 23:18:00,47.8,40.3,29.71,WNW,292,0.0,0.0,75,0.00,,,0.00,VWS V14.00,2013-02-08 21:18:00,
2013-02-08 23:19:00,47.8,40.3,29.71,WNW,292,0.0,0.0,75,0.00,,,0.00,VWS V14.00,2013-02-08 21:19:00,
2013-02-08 23:21:00,47.8,40.3,29.71,NW,315,0.0,0.0,75,0.00,,,0.00,VWS V14.00,2013-02-08 21:21:00,
2013-02-08 23:22:00,47.8,40.3,29.71,NW,315,0.0,0.0,75,0.00,,,0.00,VWS V14.00,2013-02-08 21:22:00,
2013-02-08 23:24:00,47.8,40.3,29.71,NW,315,0.0,0.0,75,0.00,,,0.00,VWS V14.00,2013-02-08 21:24:00,
2013-02-08 23:26:00,47.6,40.4,29.71,North,0,0.0,0.0,76,0.00,,,0.00,VWS V14.00,2013-02-08 21:26:00,
2013-02-08 23:27:00,47.6,40.4,29.71,North,0,0.0,0.0,76,0.00,,,0.00,VWS V14.00,2013-02-08 21:27:00,
2013-02-08 23:29:00,47.4,40.2,29.71,NNE,22,0.0,0.0,76,0.00,,,0.00,VWS V14.00,2013-02-08 21:29:00,
2013-02-08 23:31:00,47.4,40.2,29.71,East,90,0.0,0.0,76,0.00,,,0.00,VWS V14.00,2013-02-08 21:31:00,
2013-02-08 23:32:00,47.4,40.2,29.71,East,90,0.0,0.0,76,0.00,,,0.00,VWS V14.00,2013-02-08 21:32:00,
2013-02-08 23:34:00,47.4,40.2,29.71,East,90,0.0,0.0,76,0.00,,,0.00,VWS V14.00,2013-02-08 21:34:00,
2013-02-08 23:36:00,47.4,40.2,29.71,East,90,0.0,0.0,76,0.00,,,0.00,VWS V14.00,2013-02-08 21:36:00,
2013-02-08 23:37:00,47.3,40.1,29.71,East,90,0.0,0.0,76,0.00,,,0.00,VWS V14.00,2013-02-08 21:37:00,
2013-02-08 23:39:00,47.3,40.1,29.71,East,90,0.0,0.0,76,0.00,,,0.00,VWS V14.00,2013-02-08 21:39:00,
2013-02-08 23:42:00,47.3,40.1,29.71,NE,45,0.0,0.0,76,0.00,,,0.00,VWS V14.00,2013-02-08 21:42:00,
2013-02-08 23:44:00,47.3,40.1,29.71,NE,45,0.0,0.0,76,0.00,,,0.00,VWS V14.00,2013-02-08 21:44:00,
2013-02-08 23:45:00,47.3,40.1,29.71,NE,45,0.0,0.0,76,0.00,,,0.00,VWS V14.00,2013-02-08 21:45:00,
2013-02-08 23:47:00,47.3,40.5,29.71,NE,45,0.0,0.0,77,0.00,,,0.00,VWS V14.00,2013-02-08 21:47:00,
2013-02-08 23:49:00,47.3,40.5,29.71,NE,45,0.0,0.0,77,0.00,,,0.00,VWS V14.00,2013-02-08 21:49:00,
2013-02-08 23:50:00,47.1,40.3,29.71,NE,45,0.0,0.0,77,0.00,,,0.00,VWS V14.00,2013-02-08 21:50:00,
2013-02-08 23:52:00,47.1,40.3,29.71,NE,45,0.0,0.0,77,0.00,,,0.00,VWS V14.00,2013-02-08 21:52:00,
2013-02-08 23:54:00,47.1,40.3,29.71,NE,45,0.0,0.0,77,0.00,,,0.00,VWS V14.00,2013-02-08 21:54:00,
2013-02-08 23:55:00,47.1,39.9,29.71,WSW,248,0.0,0.0,76,0.00,,,0.00,VWS V14.00,2013-02-08 21:55:00,
2013-02-08 23:57:00,47.1,39.9,29.71,SW,225,0.0,0.0,76,0.00,,,0.00,VWS V14.00,2013-02-08 21:57:00,
2013-02-08 23:59:00,47.1,39.9,29.71,SW,225,0.0,0.0,76,0.00,,,0.00,VWS V14.00,2013-02-08 21:59:00,